M I D A S
Marine Information and Data Acquisition System
Tripno 1151 of the Zeeleeuw from 2006-08-23 06:29:35 to 2006-08-23 13:17:47
Back to CruiseResearch ActivitiesStationsMapUnderway DataData graphs

EquipmentUnitsComment
TimeDGPSUTC
LatitudeDGPSDM.mWGS84
LongitudeDGPSDM.mWGS84
TemperatureSBE03/SBE38deg celciusITS90
ConductivitySBE21S/mITS90
SalinitySBE21 Practical Salinity Units
ChlorophylAChelsea fluorimeterg/lCalibrated in Aceton
Missing or incorrect values are displayed as -999
Sea surface data collected by the RV Zeeleeuw from 2006-08-23 06:31:14 to 2006-08-23 13:29:55
                                                                                    Next 1000 lines
Time Latitude Longitude Temperature Conductivity Salinity ChlorophylA
2006-08-23 06:31:24 51°13.602 2°56.096 21.6346 0.007472 0.041887 -0.241899
2006-08-23 06:31:30 51°13.603 2°56.094 21.6384 0.007472 0.041887 -0.241899
2006-08-23 06:31:34 51°13.604 2°56.092 21.6727 0.007472 0.041887 -0.241899
2006-08-23 06:31:40 51°13.604 2°56.089 21.7277 0.007472 0.041887 -0.208189
2006-08-23 06:31:44 51°13.605 2°56.087 21.7233 0.007472 0.041888 -0.241899
2006-08-23 06:31:50 51°13.606 2°56.084 21.707 0.007472 0.041888 -0.275608
2006-08-23 06:31:55 51°13.606 2°56.081 21.6889 0.007472 0.041889 -0.241899
2006-08-23 06:32:00 51°13.607 2°56.078 21.6728 0.007472 0.041889 -0.241899
2006-08-23 06:32:05 51°13.608 2°56.075 21.6626 0.007472 0.041889 -0.275608
2006-08-23 06:32:10 51°13.608 2°56.071 21.6824 0.007472 0.041889 -0.241899
2006-08-23 06:32:15 51°13.609 2°56.067 21.673 0.007472 0.04189 -0.241899
2006-08-23 06:32:20 51°13.61 2°56.063 21.6623 0.007472 0.04189 -0.241899
2006-08-23 06:32:24 51°13.611 2°56.059 21.6634 0.007472 0.041891 -0.208189
2006-08-23 06:32:30 51°13.612 2°56.052 21.7077 0.007472 0.041891 -0.208189
2006-08-23 06:32:35 51°13.613 2°56.046 21.7154 0.007472 0.041891 -0.241899
2006-08-23 06:32:40 51°13.614 2°56.039 21.7213 0.007472 0.041892 -0.241899
2006-08-23 06:32:45 51°13.616 2°56.032 21.7163 0.007472 0.041893 -0.241899
2006-08-23 06:32:50 51°13.618 2°56.025 21.7143 0.007472 0.041893 -0.241899
2006-08-23 06:32:55 51°13.62 2°56.018 21.7281 0.007472 0.041894 -0.241899
2006-08-23 06:33:00 51°13.621 2°56.01 21.718 0.007472 0.041894 -0.241899
2006-08-23 06:33:05 51°13.623 2°56.002 21.7097 0.007472 0.041894 -0.275608
2006-08-23 06:33:10 51°13.626 2°55.994 21.0695 0.007472 0.041894 -0.241899
2006-08-23 06:33:15 51°13.628 2°55.985 20.8 0.007472 0.041894 -0.241899
2006-08-23 06:33:20 51°13.631 2°55.976 20.6183 0.007472 0.041926 -0.241899
2006-08-23 06:33:25 51°13.634 2°55.968 20.4137 0.007472 0.041905 -0.275608
2006-08-23 06:33:30 51°13.637 2°55.959 20.3177 0.007472 0.041905 -0.275608
2006-08-23 06:33:35 51°13.64 2°55.95 20.2395 2.914633 19.417835 1.106477
2006-08-23 06:33:40 51°13.644 2°55.941 20.1908 3.307988 22.304173 1.207606
2006-08-23 06:33:45 51°13.647 2°55.932 20.1135 3.431826 23.298169 0.567127
2006-08-23 06:33:50 51°13.651 2°55.923 20.0291 3.661342 25.170464 0.567127
2006-08-23 06:33:55 51°13.655 2°55.914 19.9878 3.8453 26.72735 0.600836
2006-08-23 06:34:01 51°13.66 2°55.903 19.8894 3.8453 26.72735 0.600836
2006-08-23 06:34:05 51°13.663 2°55.895 19.7874 3.825283 26.713411 0.567127
2006-08-23 06:34:10 51°13.667 2°55.886 19.7842 3.78335 26.487637 0.600836
2006-08-23 06:34:15 51°13.67 2°55.877 19.7288 3.764808 26.423816 0.567127
2006-08-23 06:34:20 51°13.674 2°55.868 19.5868 3.748479 26.371366 0.567127
2006-08-23 06:34:25 51°13.677 2°55.86 19.5661 3.746162 26.402569 0.600836
2006-08-23 06:34:30 51°13.68 2°55.851 19.5454 3.746162 26.402569 0.600836
2006-08-23 06:34:35 51°13.683 2°55.842 19.5233 3.766076 26.608133 0.600836
2006-08-23 06:34:40 51°13.686 2°55.834 19.4612 3.776718 26.750648 0.600836
2006-08-23 06:34:45 51°13.688 2°55.826 19.4167 3.793683 26.941006 0.600836
2006-08-23 06:34:50 51°13.691 2°55.818 19.3764 3.803588 27.060653 0.634546
2006-08-23 06:34:55 51°13.693 2°55.81 19.3225 3.844261 27.442303 0.634546
2006-08-23 06:35:00 51°13.694 2°55.802 19.3103 3.844261 27.442303 0.634546
2006-08-23 06:35:05 51°13.696 2°55.794 19.308 3.863018 27.646721 0.634546
2006-08-23 06:35:10 51°13.697 2°55.787 19.357 3.865864 27.706609 0.668255
2006-08-23 06:35:15 51°13.698 2°55.78 19.2382 3.878509 27.833105 0.668255
2006-08-23 06:35:20 51°13.7 2°55.773 19.171 3.893052 27.983073 0.634546
2006-08-23 06:35:25 51°13.701 2°55.768 19.1764 3.896108 28.045849 0.701965
2006-08-23 06:35:30 51°13.702 2°55.763 19.1863 3.896108 28.045849 0.701965
2006-08-23 06:35:35 51°13.703 2°55.758 19.138 3.907279 28.174319 0.701965
2006-08-23 06:35:40 51°13.703 2°55.755 19.1139 3.91297 28.239555 0.701965
2006-08-23 06:35:45 51°13.704 2°55.753 19.0893 3.903486 28.168252 0.668255
2006-08-23 06:35:49 51°13.704 2°55.752 19.0898 3.898007 28.144827 0.735674
2006-08-23 06:35:54 51°13.704 2°55.751 19.0845 3.912128 28.295659 0.701965
2006-08-23 06:35:59 51°13.705 2°55.751 19.0998 3.912128 28.295659 0.701965
2006-08-23 06:36:05 51°13.706 2°55.752 19.107 3.903487 28.251166 0.735674
2006-08-23 06:36:10 51°13.707 2°55.752 19.099 3.905174 28.281099 0.735674
2006-08-23 06:36:15 51°13.708 2°55.753 19.1116 3.911181 28.348778 0.769383
2006-08-23 06:36:20 51°13.709 2°55.753 19.1227 3.906123 28.328788 0.769383
2006-08-23 06:36:25 51°13.709 2°55.753 19.0865 3.89822 28.281482 0.769383
2006-08-23 06:36:29 51°13.71 2°55.753 19.0525 3.89822 28.281482 0.769383
2006-08-23 06:36:34 51°13.71 2°55.753 19.0264 3.896218 28.272576 0.769383
2006-08-23 06:36:39 51°13.71 2°55.752 19.0272 3.887261 28.2013 0.769383
2006-08-23 06:36:44 51°13.71 2°55.751 19.0153 3.88568 28.19048 0.769383
2006-08-23 06:36:50 51°13.709 2°55.75 19.0145 3.893267 28.250706 0.769383
2006-08-23 06:36:54 51°13.709 2°55.749 19.0055 3.886207 28.189914 0.769383
2006-08-23 06:36:59 51°13.708 2°55.747 18.9995 3.886207 28.189914 0.769383
2006-08-23 06:37:04 51°13.707 2°55.746 18.9929 3.867556 28.050605 0.769383
2006-08-23 06:37:09 51°13.706 2°55.745 18.9991 3.833627 27.791556 0.803093
2006-08-23 06:37:14 51°13.706 2°55.744 18.9895 3.836472 27.829215 0.769383
2006-08-23 06:37:20 51°13.705 2°55.743 18.9928 3.830256 27.789578 0.769383
2006-08-23 06:37:25 51°13.705 2°55.743 18.9886 3.822248 27.733587 0.769383
2006-08-23 06:37:30 51°13.705 2°55.742 18.9872 3.822248 27.733587 0.769383
2006-08-23 06:37:35 51°13.706 2°55.742 18.975 3.834154 27.835768 0.769383
2006-08-23 06:37:39 51°13.706 2°55.742 18.9859 3.836578 27.860562 0.769383
2006-08-23 06:37:44 51°13.707 2°55.741 18.9779 3.834892 27.850777 0.769383
2006-08-23 06:37:49 51°13.708 2°55.741 18.9717 3.836789 27.869421 0.769383
2006-08-23 06:37:54 51°13.709 2°55.74 18.9774 3.840266 27.898917 0.769383
2006-08-23 06:38:00 51°13.711 2°55.739 18.9787 3.840266 27.898917 0.769383
2006-08-23 06:38:04 51°13.712 2°55.738 18.9711 3.840161 27.900935 0.735674
2006-08-23 06:38:09 51°13.714 2°55.737 18.9698 3.845535 27.947192 0.769383
2006-08-23 06:38:14 51°13.716 2°55.735 18.9599 3.850382 27.990172 0.803093
2006-08-23 06:38:20 51°13.719 2°55.733 18.9592 3.848591 27.976182 0.769383
2006-08-23 06:38:24 51°13.721 2°55.73 18.955 3.849012 27.981026 0.769383
2006-08-23 06:38:29 51°13.725 2°55.727 18.9504 3.849012 27.981026 0.769383
2006-08-23 06:38:34 51°13.728 2°55.723 18.9548 3.847115 27.967144 0.769383
2006-08-23 06:38:39 51°13.733 2°55.718 18.9486 3.84269 27.933794 0.735674
2006-08-23 06:38:44 51°13.738 2°55.714 18.946 3.851541 28.007215 0.769383
2006-08-23 06:38:49 51°13.743 2°55.709 18.9431 3.852384 28.017389 0.735674
2006-08-23 06:38:54 51°13.748 2°55.703 18.9311 3.843955 27.952154 0.769383
2006-08-23 06:39:00 51°13.755 2°55.697 18.911 3.843955 27.952154 0.769383
2006-08-23 06:39:05 51°13.761 2°55.691 18.8893 3.858601 28.073413 0.769383
2006-08-23 06:39:09 51°13.766 2°55.686 18.874 3.857337 28.065597 0.769383
2006-08-23 06:39:14 51°13.772 2°55.68 18.8731 3.837422 27.907514 0.803093
2006-08-23 06:39:19 51°13.779 2°55.674 18.8611 3.863238 28.118137 0.769383
2006-08-23 06:39:24 51°13.786 2°55.668 18.8647 3.860603 28.098276 0.769383
2006-08-23 06:39:30 51°13.794 2°55.662 18.861 3.860603 28.098276 0.769383
2006-08-23 06:39:34 51°13.8 2°55.657 18.8567 3.865345 28.142427 0.735674
2006-08-23 06:39:40 51°13.809 2°55.65 18.8545 3.875988 28.241164 0.735674
2006-08-23 06:39:44 51°13.815 2°55.645 18.8481 3.846273 28.010761 0.735674
2006-08-23 06:39:50 51°13.824 2°55.639 18.851 3.878939 28.285464 0.701965
2006-08-23 06:39:54 51°13.831 2°55.634 18.8433 3.880625 28.306916 0.701965
2006-08-23 06:40:00 51°13.84 2°55.627 18.8351 3.880625 28.306916 0.701965
2006-08-23 06:40:05 51°13.848 2°55.62 18.8379 3.881995 28.321919 0.668255
2006-08-23 06:40:10 51°13.856 2°55.614 18.8266 3.88484 28.349869 0.701965
2006-08-23 06:40:14 51°13.863 2°55.609 18.8202 3.883049 28.337775 0.701965
2006-08-23 06:40:20 51°13.873 2°55.602 18.8131 3.885367 28.359998 0.701965
2006-08-23 06:40:24 51°13.879 2°55.597 18.8104 3.885578 28.364636 0.701965
2006-08-23 06:40:30 51°13.889 2°55.59 18.8044 3.885578 28.364636 0.701965
2006-08-23 06:40:34 51°13.896 2°55.585 18.806 3.886948 28.377218 0.701965
2006-08-23 06:40:40 51°13.906 2°55.578 18.8036 3.889899 28.407031 0.701965
2006-08-23 06:40:45 51°13.914 2°55.572 18.799 3.888845 28.403855 0.701965
2006-08-23 06:40:50 51°13.923 2°55.566 18.7862 3.890426 28.419137 0.701965
2006-08-23 06:40:54 51°13.93 2°55.561 18.7817 3.889688 28.417551 0.735674
2006-08-23 06:41:00 51°13.94 2°55.554 18.7781 3.889688 28.417551 0.735674
2006-08-23 06:41:05 51°13.949 2°55.548 18.776 3.89285 28.448618 0.735674
2006-08-23 06:41:10 51°13.957 2°55.542 18.7741 3.901385 28.521415 0.735674
2006-08-23 06:41:14 51°13.964 2°55.538 18.7816 3.909921 28.59524 0.769383
2006-08-23 06:41:20 51°13.975 2°55.53 18.7727 3.9193 28.672511 0.701965
2006-08-23 06:41:25 51°13.984 2°55.524 18.7703 3.941324 28.856245 0.668255
2006-08-23 06:41:29 51°13.991 2°55.519 18.7665 3.941324 28.856245 0.668255
2006-08-23 06:41:34 51°14 2°55.512 18.7728 3.959766 29.010989 0.735674
2006-08-23 06:41:40 51°14.01 2°55.505 18.7713 3.974837 29.138886 0.701965
2006-08-23 06:41:45 51°14.019 2°55.498 18.7762 3.982003 29.198862 0.701965
2006-08-23 06:41:50 51°14.028 2°55.492 18.7742 3.997495 29.327844 0.701965
2006-08-23 06:41:54 51°14.036 2°55.487 18.7653 4.012987 29.456419 0.701965
2006-08-23 06:42:00 51°14.047 2°55.479 18.7668 4.012987 29.456419 0.701965
2006-08-23 06:42:04 51°14.055 2°55.473 18.7746 4.022156 29.533902 0.701965
2006-08-23 06:42:08 51°14.062 2°55.468 18.7687 4.03259 29.619724 0.701965
2006-08-23 06:42:14 51°14.074 2°55.459 18.7706 4.036174 29.649543 0.701965
2006-08-23 06:42:19 51°14.084 2°55.452 18.7755 4.039019 29.673333 0.701965
2006-08-23 06:42:24 51°14.094 2°55.444 18.7721 4.0367 29.654878 0.701965
2006-08-23 06:42:29 51°14.103 2°55.437 18.7677 4.0367 29.654878 0.701965
2006-08-23 06:42:35 51°14.116 2°55.428 18.7725 4.035541 29.645906 0.701965
2006-08-23 06:42:39 51°14.124 2°55.422 18.762 4.036384 29.653827 0.668255
2006-08-23 06:42:44 51°14.134 2°55.414 18.7668 4.034382 29.637959 0.701965
2006-08-23 06:42:49 51°14.144 2°55.406 18.7702 4.030166 29.603989 0.701965
2006-08-23 06:42:54 51°14.155 2°55.399 18.7639 4.026372 29.571429 0.735674
2006-08-23 06:43:00 51°14.167 2°55.389 18.7587 4.026372 29.571429 0.735674
2006-08-23 06:43:04 51°14.175 2°55.382 18.7551 4.023843 29.551258 0.769383
2006-08-23 06:43:10 51°14.187 2°55.37 18.7499 4.019311 29.513188 0.803093
2006-08-23 06:43:14 51°14.195 2°55.362 18.75 4.016254 29.489224 0.769383
2006-08-23 06:43:19 51°14.205 2°55.351 18.7534 4.01499 29.479396 0.803093
2006-08-23 06:43:25 51°14.217 2°55.338 18.7497 4.012987 29.463538 0.803093
2006-08-23 06:43:30 51°14.227 2°55.326 18.7458 4.012987 29.463538 0.803093
2006-08-23 06:43:35 51°14.236 2°55.313 18.7385 4.013831 29.471446 0.803093
2006-08-23 06:43:40 51°14.246 2°55.3 18.7366 4.013936 29.476888 0.803093
2006-08-23 06:43:44 51°14.253 2°55.288 18.7384 4.015622 29.493729 0.836802
2006-08-23 06:43:50 51°14.264 2°55.271 18.7446 4.015728 29.496628 0.803093
2006-08-23 06:43:55 51°14.272 2°55.255 18.7343 4.012988 29.475242 0.803093
2006-08-23 06:44:00 51°14.28 2°55.239 18.7314 4.012988 29.475242 0.803093
2006-08-23 06:44:05 51°14.289 2°55.223 18.7275 4.006559 29.424208 0.836802
2006-08-23 06:44:10 51°14.296 2°55.206 18.723 3.999182 29.365431 0.803093
2006-08-23 06:44:13 51°14.301 2°55.196 18.7258 3.984744 29.252516 0.870512
2006-08-23 06:44:20 51°14.312 2°55.172 18.7224 3.977367 29.191752 0.836802
2006-08-23 06:44:24 51°14.318 2°55.159 18.7198 3.97157 29.144922 0.836802
2006-08-23 06:44:29 51°14.327 2°55.142 18.7201 3.97157 29.144922 0.836802
2006-08-23 06:44:35 51°14.337 2°55.122 18.7237 3.963245 29.079966 0.836802
2006-08-23 06:44:40 51°14.345 2°55.106 18.7191 3.963561 29.08305 0.836802
2006-08-23 06:44:44 51°14.352 2°55.093 18.7234 3.959557 29.053873 0.803093
2006-08-23 06:44:50 51°14.364 2°55.074 18.7169 3.951021 28.987204 0.836802
2006-08-23 06:44:54 51°14.372 2°55.061 18.7202 3.941958 28.913248 0.836802
2006-08-23 06:45:00 51°14.385 2°55.043 18.7149 3.941958 28.913248 0.836802
2006-08-23 06:45:05 51°14.396 2°55.029 18.7031 3.935424 28.861943 0.803093
2006-08-23 06:45:09 51°14.405 2°55.017 18.7177 3.935108 28.859364 0.836802
2006-08-23 06:45:14 51°14.417 2°55.004 18.71 3.934792 28.857284 0.836802
2006-08-23 06:45:20 51°14.432 2°54.988 18.6888 3.943644 28.929505 0.803093
2006-08-23 06:45:24 51°14.442 2°54.976 18.683 3.953339 29.011141 0.803093
2006-08-23 06:45:30 51°14.456 2°54.958 18.6714 3.953339 29.011141 0.803093
2006-08-23 06:45:34 51°14.465 2°54.945 18.6636 3.96999 29.147624 0.836802
2006-08-23 06:45:39 51°14.477 2°54.929 18.6599 3.987906 29.295049 0.803093
2006-08-23 06:45:44 51°14.489 2°54.912 18.6577 4.004557 29.434787 0.836802
2006-08-23 06:45:50 51°14.504 2°54.893 18.6472 4.020892 29.568995 0.836802
2006-08-23 06:45:54 51°14.514 2°54.88 18.648 4.035753 29.697884 0.836802
2006-08-23 06:45:59 51°14.526 2°54.864 18.6471 4.035753 29.697884 0.836802
2006-08-23 06:46:05 51°14.541 2°54.845 18.6427 4.053459 29.849213 0.836802
2006-08-23 06:46:10 51°14.554 2°54.828 18.643 4.074117 30.027016 0.836802
2006-08-23 06:46:15 51°14.567 2°54.812 18.6443 4.091086 30.172651 0.803093
2006-08-23 06:46:20 51°14.58 2°54.796 18.6329 4.106264 30.302131 0.836802
2006-08-23 06:46:24 51°14.59 2°54.783 18.6302 4.11712 30.396166 0.836802
2006-08-23 06:46:30 51°14.606 2°54.764 18.6319 4.11712 30.396166 0.836802
2006-08-23 06:46:34 51°14.616 2°54.751 18.6219 4.140731 30.594769 0.870512
2006-08-23 06:46:40 51°14.632 2°54.732 18.6136 4.161601 30.769413 0.870512
2006-08-23 06:46:44 51°14.642 2°54.719 18.6122 4.187215 30.982839 0.870512
2006-08-23 06:46:50 51°14.658 2°54.7 18.5985 4.203132 31.115322 0.870512
2006-08-23 06:46:54 51°14.668 2°54.687 18.5987 4.235388 31.386775 0.870512
2006-08-23 06:47:00 51°14.684 2°54.668 18.5904 4.235388 31.386775 0.870512
2006-08-23 06:47:04 51°14.694 2°54.655 18.592 4.254574 31.548784 0.836802
2006-08-23 06:47:09 51°14.708 2°54.64 18.5872 4.267645 31.659203 0.904221
2006-08-23 06:47:14 51°14.721 2°54.624 18.5735 4.28894 31.841159 0.870512
2006-08-23 06:47:20 51°14.737 2°54.606 18.5608 4.310657 32.026269 0.870512
2006-08-23 06:47:24 51°14.748 2°54.593 18.5578 4.327103 32.168371 0.870512
2006-08-23 06:47:29 51°14.761 2°54.578 18.5602 4.327103 32.168371 0.870512
2006-08-23 06:47:34 51°14.774 2°54.562 18.5501 4.338594 32.26831 0.870512
2006-08-23 06:47:40 51°14.79 2°54.543 18.5523 4.348609 32.356049 0.870512
2006-08-23 06:47:45 51°14.803 2°54.528 18.5542 4.35504 32.415157 0.836802
2006-08-23 06:47:50 51°14.816 2°54.512 18.5492 4.367797 32.526943 0.803093
2006-08-23 06:47:54 51°14.827 2°54.499 18.5512 4.378129 32.618058 0.803093
2006-08-23 06:48:00 51°14.842 2°54.48 18.5523 4.378129 32.618058 0.803093
2006-08-23 06:48:05 51°14.856 2°54.465 18.5564 4.375915 32.604725 0.769383
2006-08-23 06:48:10 51°14.869 2°54.45 18.5591 4.389937 32.725522 0.735674
2006-08-23 06:48:14 51°14.879 2°54.438 18.5619 4.396579 32.785447 0.769383
2006-08-23 06:48:19 51°14.893 2°54.423 18.5613 4.399953 32.815861 0.769383
2006-08-23 06:48:24 51°14.906 2°54.408 18.5597 4.411972 32.918975 0.735674
2006-08-23 06:48:30 51°14.922 2°54.39 18.5614 4.411972 32.918975 0.735674
2006-08-23 06:48:34 51°14.932 2°54.378 18.5594 4.417876 32.968241 0.701965
2006-08-23 06:48:40 51°14.948 2°54.36 18.5621 4.421461 32.998733 0.701965
2006-08-23 06:48:44 51°14.959 2°54.348 18.57 4.425783 33.033091 0.701965
2006-08-23 06:48:50 51°14.974 2°54.33 18.564 4.428525 33.053098 0.701965
2006-08-23 06:48:54 51°14.985 2°54.318 18.5689 4.434534 33.103847 0.668255
2006-08-23 06:48:59 51°14.997 2°54.302 18.575 4.434534 33.103847 0.668255
2006-08-23 06:49:04 51°15.01 2°54.287 18.5737 4.43949 33.145227 0.668255
2006-08-23 06:49:10 51°15.026 2°54.269 18.5737 4.44455 33.186918 0.668255
2006-08-23 06:49:14 51°15.036 2°54.257 18.5792 4.448979 33.223909 0.668255
2006-08-23 06:49:19 51°15.049 2°54.242 18.5783 4.451404 33.241275 0.634546
2006-08-23 06:49:25 51°15.065 2°54.224 18.5781 4.45425 33.265059 0.634546
2006-08-23 06:49:29 51°15.075 2°54.212 18.5778 4.45425 33.265059 0.634546
2006-08-23 06:49:34 51°15.089 2°54.197 18.5803 4.456886 33.284765 0.668255
2006-08-23 06:49:40 51°15.104 2°54.179 18.5811 4.458889 33.299765 0.668255
2006-08-23 06:49:45 51°15.117 2°54.164 18.5822 4.460998 33.316226 0.701965
2006-08-23 06:49:50 51°15.13 2°54.149 18.5829 4.462896 33.330344 0.668255
2006-08-23 06:49:54 51°15.141 2°54.136 18.5819 4.463739 33.335072 0.701965
2006-08-23 06:50:00 51°15.156 2°54.118 18.5834 4.463739 33.335072 0.701965
2006-08-23 06:50:05 51°15.169 2°54.102 18.5857 4.467851 33.369434 0.668255
2006-08-23 06:50:10 51°15.183 2°54.087 18.586 4.455304 33.264604 0.668255
2006-08-23 06:50:14 51°15.193 2°54.074 18.5839 4.472385 33.406163 0.668255
2006-08-23 06:50:19 51°15.206 2°54.059 18.5834 4.473545 33.415276 0.668255
2006-08-23 06:50:24 51°15.22 2°54.043 18.5883 4.473966 33.416475 0.701965
2006-08-23 06:50:29 51°15.233 2°54.029 18.5848 4.473966 33.416475 0.701965
2006-08-23 06:50:34 51°15.246 2°54.014 18.588 4.476181 33.434982 0.668255
2006-08-23 06:50:40 51°15.263 2°53.996 18.583 4.47713 33.442332 0.701965
2006-08-23 06:50:43 51°15.271 2°53.988 18.5862 4.477868 33.447337 0.701965
2006-08-23 06:50:50 51°15.29 2°53.967 18.5838 4.4785 33.452625 0.668255
2006-08-23 06:50:54 51°15.301 2°53.955 18.5868 4.479449 33.459393 0.701965
2006-08-23 06:51:00 51°15.317 2°53.937 18.5868 4.479449 33.459393 0.701965
2006-08-23 06:51:04 51°15.328 2°53.925 18.5858 4.478606 33.452342 0.701965
2006-08-23 06:51:10 51°15.344 2°53.907 18.5869 4.4785 33.452043 0.701965
2006-08-23 06:51:15 51°15.357 2°53.892 18.589 4.479027 33.455868 0.701965
2006-08-23 06:51:20 51°15.37 2°53.877 18.5875 4.479344 33.459676 0.701965
2006-08-23 06:51:24 51°15.381 2°53.865 18.5843 4.479449 33.460557 0.735674
2006-08-23 06:51:29 51°15.395 2°53.85 18.5836 4.479449 33.460557 0.735674
2006-08-23 06:51:34 51°15.408 2°53.835 18.5805 4.479133 33.457331 0.668255
2006-08-23 06:51:39 51°15.422 2°53.82 18.5818 4.479555 33.460856 0.735674
2006-08-23 06:51:44 51°15.435 2°53.805 18.5801 4.363053 32.488589 0.701965
2006-08-23 06:51:50 51°15.452 2°53.787 18.5768 4.479555 33.459692 0.701965
2006-08-23 06:51:54 51°15.462 2°53.775 18.5739 4.479238 33.45763 0.701965
2006-08-23 06:52:00 51°15.479 2°53.758 18.5756 4.479238 33.45763 0.701965
2006-08-23 06:52:05 51°15.492 2°53.743 18.5709 4.478922 33.454404 0.701965
2006-08-23 06:52:09 51°15.503 2°53.731 18.5696 4.478922 33.456733 0.701965
2006-08-23 06:52:14 51°15.517 2°53.717 18.5667 4.478395 33.45349 0.701965
2006-08-23 06:52:20 51°15.533 2°53.7 18.57 4.478184 33.452309 0.701965
2006-08-23 06:52:24 51°15.545 2°53.689 18.564 4.477657 33.450813 0.668255
2006-08-23 06:52:30 51°15.562 2°53.673 18.5594 4.477657 33.450813 0.668255
2006-08-23 06:52:34 51°15.573 2°53.663 18.5591 4.476286 33.439936 0.668255
2006-08-23 06:52:39 51°15.587 2°53.65 18.5556 4.475653 33.435229 0.634546
2006-08-23 06:52:44 51°15.601 2°53.636 18.5494 4.474705 33.429624 0.668255
2006-08-23 06:52:50 51°15.618 2°53.619 18.5472 4.474177 33.427544 0.634546
2006-08-23 06:52:54 51°15.629 2°53.608 18.5409 4.472807 33.414921 0.634546
2006-08-23 06:52:59 51°15.642 2°53.594 18.5436 4.472807 33.414921 0.634546
2006-08-23 06:53:04 51°15.656 2°53.579 18.541 4.471752 33.409015 0.600836
2006-08-23 06:53:10 51°15.673 2°53.561 18.5406 4.471436 33.411023 0.600836
2006-08-23 06:53:15 51°15.686 2°53.546 18.5349 4.47112 33.410705 0.567127
2006-08-23 06:53:20 51°15.7 2°53.531 18.5337 4.470593 33.409787 0.600836
2006-08-23 06:53:25 51°15.713 2°53.516 18.5338 4.470277 33.410633 0.567127
2006-08-23 06:53:30 51°15.727 2°53.501 18.5291 4.470277 33.410633 0.567127
2006-08-23 06:53:35 51°15.741 2°53.487 18.5296 4.470277 33.413542 0.600836
2006-08-23 06:53:40 51°15.755 2°53.472 18.5325 4.469855 33.411179 0.567127
2006-08-23 06:53:44 51°15.766 2°53.461 18.5271 4.469328 33.408515 0.567127
2006-08-23 06:53:50 51°15.782 2°53.444 18.5333 4.468801 33.405851 0.533418
2006-08-23 06:53:54 51°15.793 2°53.432 18.5314 4.469328 33.412589 0.533418
2006-08-23 06:54:00 51°15.81 2°53.415 18.5323 4.469328 33.412589 0.533418
2006-08-23 06:54:03 51°15.818 2°53.406 18.5396 4.469012 33.412853 0.533418
2006-08-23 06:54:10 51°15.838 2°53.386 18.5415 4.469644 33.41931 0.533418
2006-08-23 06:54:14 51°15.849 2°53.375 18.5452 4.470066 33.423421 0.499708
2006-08-23 06:54:19 51°15.863 2°53.361 18.5463 4.470699 33.430462 0.533418
2006-08-23 06:54:25 51°15.88 2°53.345 18.5453 4.47112 33.434574 0.533418
2006-08-23 06:54:30 51°15.895 2°53.332 18.548 4.47112 33.434574 0.533418
2006-08-23 06:54:34 51°15.906 2°53.322 18.5482 4.472386 33.444578 0.567127
2006-08-23 06:54:40 51°15.923 2°53.307 18.5511 4.472807 33.446359 0.533418
2006-08-23 06:54:45 51°15.938 2°53.295 18.5512 4.473124 33.446675 0.567127
2006-08-23 06:54:50 51°15.952 2°53.282 18.5541 4.473756 33.449637 0.600836
2006-08-23 06:54:54 51°15.964 2°53.272 18.5533 4.474178 33.449669 0.600836
2006-08-23 06:54:59 51°15.978 2°53.259 18.5568 4.474178 33.449669 0.600836
2006-08-23 06:55:04 51°15.993 2°53.247 18.5588 4.4746 33.452032 0.567127
2006-08-23 06:55:10 51°16.01 2°53.231 18.5572 4.474916 33.452347 0.567127
2006-08-23 06:55:15 51°16.024 2°53.219 18.5597 4.475443 33.456175 0.600836
2006-08-23 06:55:19 51°16.036 2°53.208 18.5604 4.475759 33.458238 0.600836
2006-08-23 06:55:24 51°16.05 2°53.196 18.5591 4.475759 33.457073 0.600836
2006-08-23 06:55:30 51°16.068 2°53.181 18.559 4.475759 33.457073 0.600836
2006-08-23 06:55:35 51°16.082 2°53.168 18.5611 4.476392 33.460034 0.634546
2006-08-23 06:55:39 51°16.094 2°53.157 18.5592 4.47597 33.456506 0.634546
2006-08-23 06:55:44 51°16.108 2°53.144 18.5607 4.476392 33.458869 0.634546
2006-08-23 06:55:49 51°16.122 2°53.13 18.564 4.47597 33.454176 0.600836
2006-08-23 06:55:54 51°16.136 2°53.115 18.566 4.476075 33.452728 0.600836
2006-08-23 06:55:58 51°16.147 2°53.103 18.5617 4.476075 33.452728 0.600836
2006-08-23 06:56:04 51°16.163 2°53.086 18.564 4.47713 33.461546 0.600836
2006-08-23 06:56:08 51°16.175 2°53.075 18.5605 4.477657 33.465955 0.567127
2006-08-23 06:56:14 51°16.191 2°53.058 18.5608 4.477657 33.465955 0.600836
2006-08-23 06:56:19 51°16.205 2°53.044 18.5623 4.477973 33.469183 0.567127
2006-08-23 06:56:24 51°16.219 2°53.03 18.558 4.477552 33.464491 0.600836
2006-08-23 06:56:30 51°16.236 2°53.012 18.559 4.477552 33.464491 0.600836
2006-08-23 06:56:33 51°16.244 2°53.004 18.5596 4.477657 33.463625 0.567127
2006-08-23 06:56:40 51°16.263 2°52.982 18.5588 4.477762 33.463924 0.567127
2006-08-23 06:56:44 51°16.274 2°52.97 18.5569 4.47829 33.469498 0.567127
2006-08-23 06:56:49 51°16.287 2°52.955 18.5565 4.479028 33.475088 0.567127
2006-08-23 06:56:54 51°16.301 2°52.939 18.5609 4.479028 33.476254 0.533418
2006-08-23 06:56:59 51°16.314 2°52.924 18.5624 4.479028 33.476254 0.533418
2006-08-23 06:57:04 51°16.328 2°52.908 18.5568 4.480082 33.485073 0.533418
2006-08-23 06:57:09 51°16.341 2°52.894 18.5582 4.480293 33.488003 0.533418
2006-08-23 06:57:14 51°16.356 2°52.88 18.5539 4.480715 33.492114 0.533418
2006-08-23 06:57:20 51°16.373 2°52.865 18.5553 4.481664 33.500052 0.533418
2006-08-23 06:57:24 51°16.384 2°52.855 18.5558 4.482085 33.504163 0.533418
2006-08-23 06:57:30 51°16.401 2°52.84 18.5513 4.482085 33.504163 0.533418
2006-08-23 06:57:34 51°16.413 2°52.83 18.5554 4.48198 33.502114 0.499708
2006-08-23 06:57:40 51°16.43 2°52.815 18.555 4.48198 33.502114 0.499708
2006-08-23 06:57:44 51°16.442 2°52.806 18.5512 4.48314 33.511817 0.465999
2006-08-23 06:57:50 51°16.459 2°52.792 18.5512 4.484616 33.525333 0.533418
2006-08-23 06:57:54 51°16.47 2°52.781 18.55 4.485249 33.53121 0.465999
2006-08-23 06:58:00 51°16.488 2°52.766 18.5487 4.485249 33.53121 0.465999
2006-08-23 06:58:04 51°16.499 2°52.756 18.5483 4.485776 33.537373 0.465999
2006-08-23 06:58:09 51°16.513 2°52.743 18.5455 4.487146 33.549427 0.465999
2006-08-23 06:58:15 51°16.531 2°52.728 18.5449 4.487463 33.551489 0.499708
2006-08-23 06:58:18 51°16.539 2°52.721 18.5452 4.488201 33.559419 0.499708
2006-08-23 06:58:24 51°16.557 2°52.707 18.5463 4.489255 33.569412 0.465999
2006-08-23 06:58:29 51°16.571 2°52.695 18.5444 4.489255 33.569412 0.465999
2006-08-23 06:58:35 51°16.589 2°52.681 18.548 4.490099 33.577056 0.465999
2006-08-23 06:58:40 51°16.603 2°52.669 18.5545 4.490521 33.582341 0.499708
2006-08-23 06:58:44 51°16.614 2°52.659 18.5576 4.491997 33.595282 0.465999
2006-08-23 06:58:50 51°16.632 2°52.646 18.5585 4.493367 33.607341 0.432289
2006-08-23 06:58:54 51°16.643 2°52.636 18.5604 4.493895 33.611755 0.465999
2006-08-23 06:59:00 51°16.66 2°52.621 18.561 4.493895 33.611755 0.465999
2006-08-23 06:59:04 51°16.671 2°52.611 18.5625 4.495371 33.622941 0.533418
2006-08-23 06:59:10 51°16.687 2°52.594 18.5619 4.499061 33.652666 0.465999
2006-08-23 06:59:14 51°16.698 2°52.583 18.5633 4.505176 33.699765 0.465999
2006-08-23 06:59:19 51°16.711 2°52.569 18.5633 4.509394 33.732734 0.465999
2006-08-23 06:59:24 51°16.724 2°52.554 18.5647 4.511819 33.748929 0.465999
2006-08-23 06:59:30 51°16.74 2°52.537 18.5663 4.511819 33.748929 0.465999
2006-08-23 06:59:34 51°16.75 2°52.525 18.568 4.513822 33.765118 0.465999
2006-08-23 06:59:38 51°16.761 2°52.513 18.5671 4.514877 33.772772 0.432289
2006-08-23 06:59:44 51°16.776 2°52.497 18.5706 4.516669 33.786018 0.465999
2006-08-23 06:59:50 51°16.793 2°52.481 18.5721 4.517407 33.791611 0.432289
2006-08-23 06:59:54 51°16.803 2°52.47 18.5729 4.518356 33.798382 0.432289
2006-08-23 07:00:00 51°16.82 2°52.456 18.5748 4.518356 33.798382 0.432289
2006-08-23 07:00:04 51°16.831 2°52.446 18.5739 4.519621 33.808978 0.465999
2006-08-23 07:00:10 51°16.848 2°52.431 18.5779 4.51941 33.805446 0.432289
2006-08-23 07:00:14 51°16.859 2°52.422 18.5785 4.521308 33.820753 0.432289
2006-08-23 07:00:20 51°16.875 2°52.408 18.5817 4.522046 33.825168 0.39858
2006-08-23 07:00:24 51°16.886 2°52.398 18.5839 4.522679 33.82811 0.432289
2006-08-23 07:00:29 51°16.9 2°52.386 18.5845 4.522679 33.82811 0.432289
2006-08-23 07:00:34 51°16.914 2°52.374 18.5878 4.523522 33.834586 0.432289
2006-08-23 07:00:40 51°16.93 2°52.358 18.5878 4.524471 33.841944 0.465999
2006-08-23 07:00:44 51°16.941 2°52.348 18.5892 4.52542 33.847535 0.39858
2006-08-23 07:00:50 51°16.957 2°52.332 18.5935 4.525948 33.851361 0.39858
2006-08-23 07:00:54 51°16.968 2°52.322 18.5942 4.526475 33.854008 0.432289
2006-08-23 07:01:00 51°16.984 2°52.306 18.5957 4.526475 33.854008 0.432289
2006-08-23 07:01:04 51°16.995 2°52.296 18.5971 4.526896 33.856362 0.39858
2006-08-23 07:01:09 51°17.008 2°52.283 18.5979 4.52774 33.861658 0.432289
2006-08-23 07:01:14 51°17.022 2°52.271 18.5994 4.528583 33.866953 0.39858
2006-08-23 07:01:20 51°17.037 2°52.257 18.6004 4.529216 33.870483 0.39858
2006-08-23 07:01:23 51°17.044 2°52.251 18.6017 4.530481 33.87872 0.432289
2006-08-23 07:01:30 51°17.06 2°52.236 18.6026 4.530481 33.87872 0.432289
2006-08-23 07:01:34 51°17.068 2°52.229 18.6048 4.530165 33.874892 0.39858
2006-08-23 07:01:38 51°17.076 2°52.223 18.6046 4.530587 33.876656 0.432289
2006-08-23 07:01:44 51°17.087 2°52.213 18.6053 4.531747 33.884009 0.432289
2006-08-23 07:01:50 51°17.097 2°52.204 18.6046 4.532485 33.889009 0.432289
2006-08-23 07:01:54 51°17.103 2°52.198 18.606 4.533012 33.891655 0.432289
2006-08-23 07:01:58 51°17.11 2°52.192 18.6082 4.533012 33.891655 0.432289
2006-08-23 07:02:04 51°17.118 2°52.184 18.6066 4.533855 33.897538 0.39858
2006-08-23 07:02:10 51°17.126 2°52.175 18.6083 4.534804 33.904303 0.39858
2006-08-23 07:02:14 51°17.132 2°52.17 18.6075 4.535121 33.906362 0.432289
2006-08-23 07:02:19 51°17.138 2°52.163 18.6082 4.535753 33.911658 0.39858
2006-08-23 07:02:24 51°17.144 2°52.156 18.6076 4.536491 33.916658 0.39858
2006-08-23 07:02:30 51°17.15 2°52.147 18.6091 4.536491 33.916658 0.39858
2006-08-23 07:02:34 51°17.155 2°52.142 18.6096 4.536808 33.920486 0.432289
2006-08-23 07:02:40 51°17.162 2°52.133 18.6106 4.537546 33.924896 0.39858
2006-08-23 07:02:43 51°17.166 2°52.129 18.6116 4.537862 33.926954 0.39858
2006-08-23 07:02:49 51°17.175 2°52.122 18.6119 4.5386 33.932543 0.432289
2006-08-23 07:02:54 51°17.181 2°52.116 18.6114 4.495475 33.571787 0.39858
2006-08-23 07:03:00 51°17.19 2°52.111 18.612 4.495475 33.571787 0.39858
2006-08-23 07:03:04 51°17.196 2°52.109 18.6106 4.53744 33.922243 0.39858
2006-08-23 07:03:10 51°17.204 2°52.107 18.6132 4.535859 33.909592 0.432289
2006-08-23 07:03:14 51°17.21 2°52.106 18.6145 4.539022 33.934304 0.432289
2006-08-23 07:03:20 51°17.219 2°52.106 18.6142 4.538178 33.927242 0.39858
2006-08-23 07:03:25 51°17.226 2°52.107 18.6149 4.540814 33.948131 0.39858
2006-08-23 07:03:30 51°17.233 2°52.108 18.6155 4.540814 33.948131 0.39858
2006-08-23 07:03:34 51°17.239 2°52.11 18.6148 4.541131 33.949008 0.364871
2006-08-23 07:03:40 51°17.247 2°52.111 18.6155 4.541658 33.953422 0.39858
2006-08-23 07:03:44 51°17.253 2°52.113 18.6175 4.541763 33.954304 0.39858
2006-08-23 07:03:50 51°17.26 2°52.114 18.6174 4.54345 33.967248 0.39858
2006-08-23 07:03:55 51°17.265 2°52.116 18.6155 4.542607 33.960186 0.39858
2006-08-23 07:03:59 51°17.27 2°52.117 18.6161 4.542607 33.960186 0.39858
2006-08-23 07:04:04 51°17.275 2°52.118 18.6177 4.543134 33.964009 0.39858
2006-08-23 07:04:09 51°17.28 2°52.119 18.6156 4.543767 33.968715 0.39858
2006-08-23 07:04:14 51°17.284 2°52.12 18.6186 4.544083 33.971363 0.39858
2006-08-23 07:04:20 51°17.289 2°52.121 18.6172 4.544715 33.974888 0.432289
2006-08-23 07:04:24 51°17.292 2°52.122 18.6172 4.544083 33.970182 0.39858
2006-08-23 07:04:30 51°17.297 2°52.123 18.6174 4.544083 33.970182 0.39858
2006-08-23 07:04:34 51°17.3 2°52.124 18.6174 4.544821 33.975771 0.432289
2006-08-23 07:04:40 51°17.304 2°52.125 18.6183 4.545348 33.980185 0.364871
2006-08-23 07:04:44 51°17.307 2°52.125 18.6203 4.544926 33.976653 0.39858
2006-08-23 07:04:50 51°17.311 2°52.126 18.617 4.545243 33.979302 0.39858
2006-08-23 07:04:54 51°17.313 2°52.127 18.619 4.545243 33.980483 0.39858
2006-08-23 07:05:00 51°17.315 2°52.127 18.6172 4.545243 33.980483 0.39858
2006-08-23 07:05:04 51°17.316 2°52.127 18.6197 4.545243 33.979893 0.432289
2006-08-23 07:05:10 51°17.318 2°52.128 18.6202 4.545875 33.985189 0.39858
2006-08-23 07:05:14 51°17.319 2°52.128 18.6199 4.546086 33.985773 0.39858
2006-08-23 07:05:19 51°17.319 2°52.128 18.6192 4.545875 33.984008 0.39858
2006-08-23 07:05:24 51°17.32 2°52.128 18.6198 4.545875 33.984598 0.39858
2006-08-23 07:05:29 51°17.32 2°52.128 18.619 4.545875 33.984598 0.39858
2006-08-23 07:05:34 51°17.32 2°52.129 18.619 4.54693 33.991654 0.39858
2006-08-23 07:05:40 51°17.32 2°52.13 18.621 4.546719 33.990479 0.39858
2006-08-23 07:05:44 51°17.32 2°52.13 18.6215 4.54693 33.991654 0.364871
2006-08-23 07:05:50 51°17.32 2°52.13 18.6223 4.54693 33.991063 0.39858
2006-08-23 07:05:54 51°17.32 2°52.131 18.623 4.547457 33.994886 0.364871
2006-08-23 07:06:00 51°17.32 2°52.132 18.6213 4.547457 33.994886 0.364871
2006-08-23 07:06:04 51°17.32 2°52.132 18.6226 4.547352 33.995185 0.364871
2006-08-23 07:06:10 51°17.32 2°52.133 18.623 4.547457 33.996068 0.39858
2006-08-23 07:06:14 51°17.319 2°52.133 18.6193 4.547457 33.996659 0.39858
2006-08-23 07:06:18 51°17.319 2°52.134 18.6206 4.547668 33.996651 0.39858
2006-08-23 07:06:23 51°17.319 2°52.134 18.6209 4.54809 34.000182 0.39858
2006-08-23 07:06:30 51°17.319 2°52.136 18.6208 4.54809 34.000182 0.39858
2006-08-23 07:06:34 51°17.318 2°52.137 18.6212 4.547879 33.997826 0.39858
2006-08-23 07:06:39 51°17.318 2°52.138 18.6221 4.547879 33.997235 0.364871
2006-08-23 07:06:44 51°17.318 2°52.14 18.6218 4.547879 33.997235 0.39858
2006-08-23 07:06:50 51°17.318 2°52.142 18.6208 4.548406 34.001058 0.39858
2006-08-23 07:06:54 51°17.318 2°52.144 18.6221 4.5483 34.000766 0.364871
2006-08-23 07:07:00 51°17.318 2°52.148 18.6194 4.5483 34.000766 0.364871
2006-08-23 07:07:04 51°17.319 2°52.151 18.619 4.548195 34.001065 0.39858
2006-08-23 07:07:10 51°17.319 2°52.157 18.6175 4.5483 34.002539 0.364871
2006-08-23 07:07:14 51°17.32 2°52.161 18.6197 4.5483 34.000766 0.364871
2006-08-23 07:07:20 51°17.322 2°52.168 18.6204 4.548195 34.001656 0.39858
2006-08-23 07:07:23 51°17.323 2°52.171 18.6217 4.548406 34.00224 0.39858
2006-08-23 07:07:29 51°17.325 2°52.179 18.6195 4.548406 34.00224 0.39858
2006-08-23 07:07:34 51°17.327 2°52.185 18.6196 4.5483 34.001357 0.39858
2006-08-23 07:07:40 51°17.331 2°52.194 18.6203 4.548511 34.003122 0.39858
2006-08-23 07:07:45 51°17.334 2°52.2 18.6178 4.548195 34.000474 0.364871
2006-08-23 07:07:49 51°17.336 2°52.206 18.619 4.548195 34.002838 0.39858
2006-08-23 07:07:54 51°17.339 2°52.214 18.6181 4.547984 34.000482 0.364871
2006-08-23 07:08:00 51°17.344 2°52.223 18.6178 4.547984 34.000482 0.364871
2006-08-23 07:08:05 51°17.347 2°52.231 18.6169 4.547984 33.999891 0.39858
2006-08-23 07:08:10 51°17.351 2°52.239 18.6176 4.547879 33.999008 0.364871
2006-08-23 07:08:14 51°17.353 2°52.245 18.6155 4.547773 33.998716 0.39858
2006-08-23 07:08:20 51°17.358 2°52.256 18.6174 4.547879 33.999599 0.39858
2006-08-23 07:08:24 51°17.361 2°52.262 18.6165 4.547984 34.000482 0.39858
2006-08-23 07:08:30 51°17.365 2°52.272 18.6157 4.547984 34.000482 0.39858
2006-08-23 07:08:34 51°17.368 2°52.279 18.6144 4.547562 33.997541 0.39858
2006-08-23 07:08:40 51°17.372 2°52.288 18.6152 4.547352 33.995776 0.364871
2006-08-23 07:08:44 51°17.375 2°52.294 18.6143 4.547457 33.996659 0.364871
2006-08-23 07:08:50 51°17.378 2°52.303 18.6143 4.54693 33.992836 0.432289
2006-08-23 07:08:54 51°17.38 2°52.309 18.615 4.547035 33.994309 0.432289
2006-08-23 07:08:59 51°17.383 2°52.316 18.6143 4.547035 33.994309 0.432289
2006-08-23 07:09:04 51°17.386 2°52.323 18.6129 4.546613 33.990187 0.432289
2006-08-23 07:09:09 51°17.389 2°52.329 18.6133 4.54693 33.993427 0.39858
2006-08-23 07:09:14 51°17.391 2°52.336 18.6144 4.546719 33.991661 0.432289
2006-08-23 07:09:18 51°17.393 2°52.34 18.6148 4.546824 33.992544 0.432289
2006-08-23 07:09:24 51°17.395 2°52.347 18.6107 4.546508 33.990486 0.39858
2006-08-23 07:09:30 51°17.397 2°52.354 18.6122 4.546508 33.990486 0.39858
2006-08-23 07:09:35 51°17.399 2°52.359 18.6101 4.546297 33.989312 0.432289
2006-08-23 07:09:40 51°17.4 2°52.363 18.6113 4.546086 33.988728 0.39858
2006-08-23 07:09:44 51°17.401 2°52.367 18.6102 4.546508 33.992259 0.432289
2006-08-23 07:09:49 51°17.402 2°52.372 18.6111 4.545981 33.987254 0.432289
2006-08-23 07:09:54 51°17.403 2°52.376 18.6107 4.545664 33.984015 0.432289
2006-08-23 07:10:00 51°17.404 2°52.38 18.6105 4.545664 33.984015 0.432289
2006-08-23 07:10:04 51°17.405 2°52.383 18.6116 4.545559 33.984313 0.39858
2006-08-23 07:10:10 51°17.405 2°52.387 18.6097 4.545243 33.981665 0.39858
2006-08-23 07:10:14 51°17.404 2°52.389 18.6095 4.545137 33.980782 0.39858
2006-08-23 07:10:20 51°17.404 2°52.391 18.6087 4.508022 33.670834 0.39858
2006-08-23 07:10:24 51°17.404 2°52.391 18.6082 4.545032 33.982263 0.39858
2006-08-23 07:10:30 51°17.403 2°52.391 18.6074 4.545032 33.982263 0.39858
2006-08-23 07:10:34 51°17.402 2°52.392 18.6081 4.545243 33.982256 0.39858
2006-08-23 07:10:40 51°17.401 2°52.392 18.6083 4.545137 33.981964 0.432289
2006-08-23 07:10:44 51°17.401 2°52.393 18.6076 4.544716 33.979023 0.432289
2006-08-23 07:10:50 51°17.4 2°52.393 18.6076 4.544926 33.980789 0.39858
2006-08-23 07:10:54 51°17.399 2°52.394 18.6068 4.544399 33.976965 0.39858
2006-08-23 07:11:00 51°17.398 2°52.394 18.6058 4.544399 33.976965 0.39858
2006-08-23 07:11:04 51°17.398 2°52.395 18.6053 4.544505 33.97903 0.364871
2006-08-23 07:11:10 51°17.397 2°52.395 18.6052 4.544188 33.976381 0.39858
2006-08-23 07:11:14 51°17.397 2°52.395 18.6053 4.544294 33.977264 0.364871
2006-08-23 07:11:20 51°17.396 2°52.396 18.605 4.544294 33.977264 0.364871
2006-08-23 07:11:24 51°17.395 2°52.397 18.6064 4.544399 33.979329 0.39858
2006-08-23 07:11:30 51°17.394 2°52.398 18.6069 4.544399 33.979329 0.39858
2006-08-23 07:11:34 51°17.394 2°52.4 18.6068 4.544188 33.976972 0.39858
2006-08-23 07:11:39 51°17.393 2°52.402 18.6063 4.543978 33.976979 0.39858
2006-08-23 07:11:44 51°17.393 2°52.405 18.6082 4.544188 33.978745 0.39858
2006-08-23 07:11:50 51°17.393 2°52.41 18.6063 4.543978 33.976979 0.364871
2006-08-23 07:11:54 51°17.393 2°52.415 18.6091 4.544083 33.977862 0.39858
2006-08-23 07:12:00 51°17.394 2°52.422 18.6051 4.544083 33.977862 0.39858
2006-08-23 07:12:04 51°17.395 2°52.428 18.6056 4.543767 33.974622 0.39858
2006-08-23 07:12:10 51°17.397 2°52.437 18.6052 4.543556 33.973447 0.39858
2006-08-23 07:12:13 51°17.398 2°52.442 18.605 4.543661 33.973148 0.39858
2006-08-23 07:12:20 51°17.401 2°52.455 18.6046 4.54345 33.971973 0.39858
2006-08-23 07:12:23 51°17.403 2°52.46 18.6043 4.54345 33.970792 0.39858
2006-08-23 07:12:30 51°17.408 2°52.473 18.6026 4.54345 33.970792 0.39858
2006-08-23 07:12:34 51°17.41 2°52.482 18.6019 4.530586 33.863696 0.39858
2006-08-23 07:12:40 51°17.415 2°52.494 18.6034 4.543345 33.97109 0.364871
2006-08-23 07:12:44 51°17.418 2°52.502 18.6014 4.543556 33.973447 0.432289
2006-08-23 07:12:50 51°17.423 2°52.515 18.6006 4.543239 33.970798 0.39858
2006-08-23 07:12:54 51°17.426 2°52.524 18.5992 4.542923 33.96874 0.39858
2006-08-23 07:13:00 51°17.432 2°52.537 18.5992 4.542923 33.96874 0.39858
2006-08-23 07:13:04 51°17.436 2°52.545 18.5992 4.542818 33.968448 0.432289
2006-08-23 07:13:10 51°17.442 2°52.558 18.6006 4.542607 33.966682 0.432289
2006-08-23 07:13:14 51°17.446 2°52.566 18.5992 4.542396 33.964916 0.39858
2006-08-23 07:13:19 51°17.452 2°52.576 18.597 4.541974 33.961975 0.39858
2006-08-23 07:13:24 51°17.457 2°52.586 18.5999 4.541763 33.96021 0.39858
2006-08-23 07:13:30 51°17.464 2°52.597 18.6002 4.541763 33.96021 0.39858
2006-08-23 07:13:34 51°17.47 2°52.604 18.5965 4.541869 33.962274 0.432289
2006-08-23 07:13:40 51°17.478 2°52.613 18.597 4.541342 33.957859 0.432289
2006-08-23 07:13:44 51°17.484 2°52.619 18.5982 4.541236 33.957567 0.432289
2006-08-23 07:13:50 51°17.492 2°52.627 18.5974 4.541131 33.957274 0.432289
2006-08-23 07:13:53 51°17.497 2°52.631 18.5982 4.541552 33.960216 0.432289
2006-08-23 07:14:00 51°17.506 2°52.639 18.597 4.541552 33.960216 0.432289
2006-08-23 07:14:04 51°17.512 2°52.644 18.5974 4.540076 33.950216 0.432289
2006-08-23 07:14:10 51°17.519 2°52.651 18.598 4.540498 33.952567 0.432289
2006-08-23 07:14:15 51°17.525 2°52.657 18.5981 4.539865 33.94845 0.432289
2006-08-23 07:14:20 51°17.531 2°52.662 18.5971 4.539655 33.947865 0.465999
2006-08-23 07:14:24 51°17.535 2°52.667 18.5978 4.539971 33.949924 0.465999
2006-08-23 07:14:29 51°17.541 2°52.672 18.5979 4.539971 33.949924 0.465999
2006-08-23 07:14:34 51°17.546 2°52.678 18.5987 4.539233 33.943153 0.465999
2006-08-23 07:14:40 51°17.552 2°52.684 18.5994 4.539549 33.945211 0.432289
2006-08-23 07:14:44 51°17.556 2°52.689 18.598 4.539655 33.945504 0.432289
2006-08-23 07:14:49 51°17.56 2°52.694 18.5982 4.539444 33.944328 0.465999
2006-08-23 07:14:54 51°17.564 2°52.7 18.5993 4.53976 33.946977 0.465999
2006-08-23 07:15:00 51°17.569 2°52.705 18.5978 4.53976 33.946977 0.465999
2006-08-23 07:15:05 51°17.573 2°52.71 18.5994 4.539444 33.944328 0.465999
2006-08-23 07:15:09 51°17.575 2°52.714 18.5992 4.53976 33.946387 0.432289
2006-08-23 07:15:15 51°17.579 2°52.72 18.5992 4.539655 33.945504 0.432289
2006-08-23 07:15:20 51°17.582 2°52.724 18.5983 4.539971 33.948743 0.39858
2006-08-23 07:15:24 51°17.585 2°52.728 18.5987 4.540076 33.949626 0.432289
2006-08-23 07:15:29 51°17.587 2°52.732 18.5997 4.540076 33.949626 0.432289
2006-08-23 07:15:34 51°17.59 2°52.737 18.5991 4.540076 33.949035 0.432289
2006-08-23 07:15:40 51°17.592 2°52.741 18.5992 4.540076 33.949035 0.432289
2006-08-23 07:15:44 51°17.594 2°52.744 18.6024 4.540076 33.948445 0.432289
2006-08-23 07:15:50 51°17.597 2°52.748 18.601 4.540182 33.949328 0.432289
2006-08-23 07:15:54 51°17.598 2°52.751 18.5983 4.540182 33.949328 0.432289
2006-08-23 07:16:00 51°17.6 2°52.754 18.5996 4.540182 33.949328 0.432289
2006-08-23 07:16:04 51°17.601 2°52.757 18.5995 4.539865 33.94727 0.39858
2006-08-23 07:16:10 51°17.603 2°52.76 18.6 4.540076 33.948445 0.432289
2006-08-23 07:16:14 51°17.604 2°52.762 18.6003 4.540287 33.950211 0.432289
2006-08-23 07:16:20 51°17.606 2°52.764 18.5989 4.540076 33.947854 0.432289
2006-08-23 07:16:23 51°17.606 2°52.765 18.599 4.540076 33.947854 0.39858
2006-08-23 07:16:29 51°17.606 2°52.766 18.5997 4.540076 33.947854 0.39858
2006-08-23 07:16:34 51°17.606 2°52.766 18.5977 4.540076 33.947854 0.432289
2006-08-23 07:16:40 51°17.606 2°52.767 18.5981 4.539971 33.947562 0.39858
2006-08-23 07:16:44 51°17.606 2°52.767 18.597 4.539865 33.946679 0.432289
2006-08-23 07:16:50 51°17.606 2°52.767 18.5973 4.540182 33.948737 0.39858
2006-08-23 07:16:54 51°17.606 2°52.767 18.5981 4.540076 33.947264 0.432289
2006-08-23 07:17:00 51°17.606 2°52.767 18.5988 4.540076 33.947264 0.432289
2006-08-23 07:17:04 51°17.606 2°52.767 18.5975 4.539971 33.947562 0.39858
2006-08-23 07:17:10 51°17.606 2°52.767 18.5978 4.53976 33.946387 0.465999
2006-08-23 07:17:14 51°17.606 2°52.767 18.5979 4.539971 33.948152 0.432289
2006-08-23 07:17:20 51°17.606 2°52.767 18.5993 4.539865 33.94786 0.39858
2006-08-23 07:17:24 51°17.606 2°52.767 18.5985 4.539655 33.946094 0.39858
2006-08-23 07:17:30 51°17.606 2°52.767 18.6001 4.539655 33.946094 0.39858
2006-08-23 07:17:34 51°17.606 2°52.767 18.5984 4.539549 33.944621 0.39858
2006-08-23 07:17:40 51°17.607 2°52.767 18.5981 4.539865 33.94727 0.432289
2006-08-23 07:17:44 51°17.608 2°52.768 18.5994 4.53976 33.946387 0.39858
2006-08-23 07:17:50 51°17.61 2°52.77 18.5993 4.53976 33.946387 0.39858
2006-08-23 07:17:54 51°17.613 2°52.773 18.5994 4.539655 33.946685 0.432289
2006-08-23 07:17:59 51°17.616 2°52.777 18.6031 4.539655 33.946685 0.432289
2006-08-23 07:18:04 51°17.62 2°52.782 18.6009 4.539971 33.948743 0.432289
2006-08-23 07:18:10 51°17.625 2°52.791 18.6019 4.53976 33.946387 0.39858
2006-08-23 07:18:14 51°17.628 2°52.797 18.6004 4.539549 33.945211 0.39858
2006-08-23 07:18:20 51°17.632 2°52.809 18.6002 4.53976 33.945796 0.39858
2006-08-23 07:18:23 51°17.634 2°52.815 18.6006 4.539865 33.94727 0.39858
2006-08-23 07:18:30 51°17.64 2°52.832 18.6009 4.539865 33.94727 0.39858
2006-08-23 07:18:34 51°17.643 2°52.843 18.6004 4.539971 33.946972 0.432289
2006-08-23 07:18:40 51°17.649 2°52.859 18.6007 4.539865 33.945498 0.432289
2006-08-23 07:18:44 51°17.652 2°52.871 18.5998 4.539654 33.943142 0.432289
2006-08-23 07:18:49 51°17.658 2°52.887 18.5994 4.539444 33.940786 0.432289
2006-08-23 07:18:54 51°17.663 2°52.903 18.6 4.538389 33.932548 0.432289
2006-08-23 07:19:00 51°17.67 2°52.922 18.5992 4.538389 33.932548 0.432289
2006-08-23 07:19:05 51°17.676 2°52.938 18.5997 4.539022 33.937255 0.432289
2006-08-23 07:19:10 51°17.683 2°52.954 18.6009 4.539338 33.940494 0.432289
2006-08-23 07:19:14 51°17.688 2°52.967 18.5988 4.539971 33.945791 0.465999
2006-08-23 07:19:20 51°17.697 2°52.986 18.6007 4.538811 33.935489 0.432289
2006-08-23 07:19:24 51°17.703 2°52.998 18.5991 4.539022 33.938435 0.465999
2006-08-23 07:19:30 51°17.712 2°53.017 18.5976 4.539022 33.938435 0.465999
2006-08-23 07:19:34 51°17.718 2°53.03 18.5957 4.5386 33.934904 0.432289
2006-08-23 07:19:40 51°17.728 2°53.049 18.596 4.5386 33.934904 0.432289
2006-08-23 07:19:44 51°17.733 2°53.063 18.5953 4.538284 33.932846 0.432289
2006-08-23 07:19:50 51°17.743 2°53.082 18.5944 4.537967 33.930787 0.465999
2006-08-23 07:19:54 51°17.749 2°53.095 18.5938 4.537229 33.924017 0.432289
2006-08-23 07:19:59 51°17.757 2°53.111 18.5943 4.537229 33.924017 0.432289
2006-08-23 07:20:04 51°17.765 2°53.127 18.5914 4.537757 33.927841 0.432289
2006-08-23 07:20:10 51°17.774 2°53.146 18.5903 4.536491 33.918428 0.465999
2006-08-23 07:20:15 51°17.782 2°53.162 18.5912 4.536597 33.9199 0.465999
2006-08-23 07:20:19 51°17.789 2°53.175 18.5888 4.53628 33.918432 0.465999
2006-08-23 07:20:24 51°17.797 2°53.191 18.5885 4.535753 33.913428 0.465999
2006-08-23 07:20:29 51°17.805 2°53.207 18.5873 4.535753 33.913428 0.465999
2006-08-23 07:20:34 51°17.813 2°53.223 18.5864 4.535542 33.912252 0.499708
2006-08-23 07:20:39 51°17.821 2°53.238 18.5871 4.53491 33.908724 0.465999
2006-08-23 07:20:44 51°17.829 2°53.254 18.586 4.534699 33.907549 0.465999
2006-08-23 07:20:50 51°17.839 2°53.273 18.5866 4.534277 33.904017 0.465999
2006-08-23 07:20:54 51°17.845 2°53.286 18.5858 4.533328 33.896661 0.465999
2006-08-23 07:21:00 51°17.855 2°53.305 18.5843 4.533328 33.896661 0.465999
2006-08-23 07:21:04 51°17.862 2°53.317 18.5829 4.53375 33.901372 0.499708
2006-08-23 07:21:09 51°17.869 2°53.332 18.5825 4.533223 33.898137 0.499708
2006-08-23 07:21:14 51°17.876 2°53.345 18.5822 4.53259 33.894019 0.465999
2006-08-23 07:21:20 51°17.883 2°53.36 18.5818 4.532168 33.891077 0.465999
2006-08-23 07:21:23 51°17.886 2°53.367 18.581 4.532379 33.893433 0.465999
2006-08-23 07:21:30 51°17.894 2°53.382 18.5798 4.532379 33.893433 0.465999
2006-08-23 07:21:33 51°17.897 2°53.389 18.58 4.531641 33.886073 0.499708
2006-08-23 07:21:40 51°17.903 2°53.402 18.5783 4.531641 33.887842 0.499708
2006-08-23 07:21:45 51°17.907 2°53.411 18.5792 4.531641 33.887842 0.499708
2006-08-23 07:21:50 51°17.91 2°53.42 18.5772 4.531325 33.886373 0.533418
2006-08-23 07:21:54 51°17.913 2°53.427 18.5767 4.531219 33.886079 0.499708
2006-08-23 07:21:59 51°17.917 2°53.435 18.5761 4.531219 33.886079 0.499708
2006-08-23 07:22:05 51°17.921 2°53.445 18.5744 4.53027 33.878722 0.499708
2006-08-23 07:22:10 51°17.924 2°53.453 18.5746 4.529743 33.874897 0.465999
2006-08-23 07:22:14 51°17.927 2°53.458 18.5761 4.529321 33.871366 0.499708
2006-08-23 07:22:20 51°17.931 2°53.466 18.5754 4.529111 33.870778 0.499708
2006-08-23 07:22:24 51°17.934 2°53.471 18.5746 4.529532 33.875489 0.499708
2006-08-23 07:22:30 51°17.938 2°53.478 18.5747 4.529532 33.875489 0.499708
2006-08-23 07:22:34 51°17.94 2°53.482 18.5734 4.53006 33.881083 0.533418
2006-08-23 07:22:39 51°17.943 2°53.487 18.5752 4.530165 33.881966 0.499708
2006-08-23 07:22:44 51°17.947 2°53.491 18.5724 4.529427 33.876375 0.499708
2006-08-23 07:22:50 51°17.95 2°53.495 18.5729 4.529322 33.876081 0.499708
2006-08-23 07:22:54 51°17.953 2°53.497 18.5741 4.529111 33.874315 0.533418
2006-08-23 07:23:00 51°17.957 2°53.501 18.5743 4.529111 33.874315 0.533418
2006-08-23 07:23:04 51°17.959 2°53.503 18.5723 4.529216 33.875198 0.499708
2006-08-23 07:23:10 51°17.963 2°53.507 18.574 4.5289 33.873728 0.499708
2006-08-23 07:23:13 51°17.966 2°53.508 18.5736 4.528794 33.873435 0.499708
2006-08-23 07:23:20 51°17.97 2°53.512 18.5743 4.528689 33.872551 0.567127
2006-08-23 07:23:24 51°17.973 2°53.514 18.5743 4.5289 33.874907 0.533418
2006-08-23 07:23:30 51°17.977 2°53.518 18.575 4.5289 33.874907 0.533418
2006-08-23 07:23:33 51°17.979 2°53.519 18.5742 4.528267 33.869609 0.533418
2006-08-23 07:23:40 51°17.984 2°53.523 18.5746 4.528584 33.872847 0.533418
2006-08-23 07:23:44 51°17.986 2°53.526 18.5743 4.528689 33.873141 0.533418
2006-08-23 07:23:50 51°17.99 2°53.53 18.574 4.529216 33.877556 0.533418
2006-08-23 07:23:54 51°17.992 2°53.533 18.5737 4.528373 33.869902 0.567127
2006-08-23 07:24:00 51°17.994 2°53.537 18.5738 4.528373 33.869902 0.567127
2006-08-23 07:24:04 51°17.996 2°53.54 18.5738 4.5289 33.873728 0.533418
2006-08-23 07:24:10 51°17.998 2°53.544 18.5736 4.5289 33.873728 0.533418
2006-08-23 07:24:14 51°17.999 2°53.547 18.5752 4.529111 33.874905 0.533418
2006-08-23 07:24:20 51°18 2°53.551 18.5766 4.529216 33.875788 0.533418
2006-08-23 07:24:23 51°18.001 2°53.553 18.5756 4.529005 33.875201 0.499708
2006-08-23 07:24:30 51°18.002 2°53.557 18.5747 4.529005 33.875201 0.499708
2006-08-23 07:24:34 51°18.003 2°53.56 18.5761 4.529322 33.87726 0.533418
2006-08-23 07:24:40 51°18.004 2°53.564 18.5768 4.529427 33.878733 0.533418
2006-08-23 07:24:44 51°18.005 2°53.566 18.575 4.529532 33.879616 0.567127
2006-08-23 07:24:50 51°18.006 2°53.57 18.5761 4.529427 33.877554 0.533418
2006-08-23 07:24:54 51°18.006 2°53.572 18.5769 4.529427 33.879323 0.533418
2006-08-23 07:24:59 51°18.007 2°53.575 18.5762 4.529427 33.879323 0.533418
2006-08-23 07:25:04 51°18.007 2°53.578 18.5763 4.529427 33.878143 0.567127
2006-08-23 07:25:10 51°18.007 2°53.581 18.5764 4.529743 33.880203 0.533418
2006-08-23 07:25:14 51°18.008 2°53.583 18.5773 4.530165 33.882556 0.533418
2006-08-23 07:25:19 51°18.008 2°53.585 18.5762 4.530165 33.883145 0.567127
2006-08-23 07:25:24 51°18.007 2°53.586 18.5761 4.53006 33.882852 0.533418
2006-08-23 07:25:30 51°18.006 2°53.586 18.5768 4.53006 33.882852 0.533418
2006-08-23 07:25:34 51°18.006 2°53.587 18.5777 4.530271 33.884029 0.567127
2006-08-23 07:25:40 51°18.005 2°53.588 18.5775 4.530376 33.884322 0.533418
2006-08-23 07:25:44 51°18.004 2°53.588 18.5778 4.529954 33.88079 0.499708
2006-08-23 07:25:49 51°18.003 2°53.589 18.5779 4.530376 33.884322 0.533418
2006-08-23 07:25:54 51°18.003 2°53.59 18.5775 4.530376 33.884322 0.533418
2006-08-23 07:26:00 51°18.002 2°53.59 18.5777 4.530376 33.884322 0.533418
2006-08-23 07:26:05 51°18.001 2°53.591 18.5778 4.530165 33.883145 0.533418
2006-08-23 07:26:09 51°18 2°53.591 18.5777 4.530376 33.884322 0.533418
2006-08-23 07:26:14 51°18 2°53.592 18.5793 4.530587 33.884909 0.533418
2006-08-23 07:26:20 51°17.999 2°53.592 18.5786 4.530692 33.885202 0.533418
2006-08-23 07:26:25 51°17.997 2°53.593 18.5779 4.530798 33.886675 0.533418
2006-08-23 07:26:29 51°17.997 2°53.593 18.5783 4.530798 33.886675 0.533418
2006-08-23 07:26:34 51°17.996 2°53.594 18.5776 4.530798 33.886675 0.567127
2006-08-23 07:26:40 51°17.994 2°53.596 18.5775 4.530587 33.884319 0.533418
2006-08-23 07:26:44 51°17.993 2°53.597 18.5765 4.530903 33.887558 0.533418
2006-08-23 07:26:50 51°17.991 2°53.6 18.5769 4.530903 33.886968 0.499708
2006-08-23 07:26:54 51°17.991 2°53.602 18.5781 4.530481 33.883436 0.533418
2006-08-23 07:27:00 51°17.988 2°53.605 18.5779 4.530481 33.883436 0.533418
2006-08-23 07:27:04 51°17.987 2°53.607 18.578 4.531009 33.887851 0.533418
2006-08-23 07:27:10 51°17.985 2°53.61 18.5778 4.530903 33.888147 0.567127
2006-08-23 07:27:15 51°17.983 2°53.614 18.5779 4.530692 33.885202 0.533418
2006-08-23 07:27:19 51°17.981 2°53.618 18.5774 4.530798 33.886675 0.499708
2006-08-23 07:27:24 51°17.978 2°53.623 18.5783 4.530903 33.887558 0.533418
2006-08-23 07:27:30 51°17.974 2°53.629 18.5778 4.530903 33.887558 0.533418
2006-08-23 07:27:34 51°17.97 2°53.634 18.5769 4.530481 33.884026 0.567127
2006-08-23 07:27:40 51°17.965 2°53.641 18.5787 4.530903 33.886378 0.567127
2006-08-23 07:27:44 51°17.962 2°53.646 18.5773 4.530692 33.885792 0.567127
2006-08-23 07:27:50 51°17.955 2°53.655 18.5772 4.531114 33.889914 0.567127
2006-08-23 07:27:54 51°17.949 2°53.66 18.5771 4.530903 33.887558 0.533418
2006-08-23 07:28:00 51°17.94 2°53.669 18.5777 4.530903 33.887558 0.533418
2006-08-23 07:28:04 51°17.933 2°53.675 18.5771 4.531009 33.887261 0.533418
2006-08-23 07:28:10 51°17.921 2°53.684 18.5783 4.530587 33.884319 0.567127
2006-08-23 07:28:14 51°17.912 2°53.689 18.5777 4.530903 33.886968 0.600836
2006-08-23 07:28:20 51°17.898 2°53.695 18.5766 4.531325 33.88991 0.567127
2006-08-23 07:28:23 51°17.89 2°53.698 18.5768 4.530798 33.885495 0.600836
2006-08-23 07:28:29 51°17.874 2°53.702 18.5759 4.530798 33.885495 0.600836
2006-08-23 07:28:34 51°17.86 2°53.701 18.5764 4.531219 33.889027 0.567127
2006-08-23 07:28:40 51°17.842 2°53.698 18.576 4.531009 33.887851 0.567127
2006-08-23 07:28:44 51°17.83 2°53.693 18.574 4.531009 33.887261 0.600836
2006-08-23 07:28:50 51°17.812 2°53.684 18.5732 4.530798 33.886085 0.634546
2006-08-23 07:28:54 51°17.8 2°53.675 18.571 4.531325 33.889321 0.600836
2006-08-23 07:28:59 51°17.786 2°53.663 18.5721 4.531325 33.889321 0.600836
2006-08-23 07:29:05 51°17.769 2°53.646 18.5704 4.531114 33.887555 0.600836
2006-08-23 07:29:09 51°17.758 2°53.635 18.5691 4.531219 33.887848 0.634546
2006-08-23 07:29:14 51°17.744 2°53.619 18.5675 4.530798 33.885495 0.634546
2006-08-23 07:29:18 51°17.732 2°53.609 18.5668 4.530481 33.882257 0.634546
2006-08-23 07:29:24 51°17.714 2°53.591 18.5652 4.530271 33.882849 0.668255
2006-08-23 07:29:29 51°17.699 2°53.576 18.5649 4.530271 33.882849 0.668255
2006-08-23 07:29:34 51°17.684 2°53.561 18.5634 4.529849 33.879907 0.634546
2006-08-23 07:29:40 51°17.666 2°53.542 18.5625 4.529532 33.877258 0.634546
2006-08-23 07:29:44 51°17.654 2°53.53 18.5597 4.528689 33.872551 0.600836
2006-08-23 07:29:49 51°17.639 2°53.515 18.5594 4.528056 33.869022 0.600836
2006-08-23 07:29:54 51°17.624 2°53.5 18.5581 4.527845 33.868434 0.634546
2006-08-23 07:30:00 51°17.606 2°53.481 18.5575 4.527845 33.868434 0.634546
2006-08-23 07:30:04 51°17.594 2°53.47 18.5586 4.527424 33.866081 0.600836
2006-08-23 07:30:10 51°17.576 2°53.452 18.5558 4.52658 33.860195 0.600836
2006-08-23 07:30:15 51°17.56 2°53.436 18.5552 4.526053 33.856369 0.600836
2006-08-23 07:30:20 51°17.545 2°53.42 18.5553 4.525526 33.85431 0.600836
2006-08-23 07:30:24 51°17.534 2°53.408 18.5542 4.525104 33.850778 0.634546
2006-08-23 07:30:30 51°17.516 2°53.388 18.5541 4.525104 33.850778 0.634546
2006-08-23 07:30:34 51°17.505 2°53.373 18.5523 4.523733 33.840475 0.634546
2006-08-23 07:30:39 51°17.49 2°53.356 18.5512 4.523206 33.837238 0.600836
2006-08-23 07:30:44 51°17.476 2°53.339 18.5533 4.523101 33.836944 0.600836
2006-08-23 07:30:49 51°17.463 2°53.32 18.552 4.522046 33.82929 0.634546
2006-08-23 07:30:54 51°17.449 2°53.303 18.5512 4.522046 33.82929 0.567127
2006-08-23 07:31:00 51°17.432 2°53.281 18.5513 4.522046 33.82929 0.567127
2006-08-23 07:31:04 51°17.421 2°53.265 18.5522 4.521625 33.826346 0.600836
2006-08-23 07:31:09 51°17.407 2°53.248 18.5507 4.521097 33.82252 0.600836
2006-08-23 07:31:14 51°17.393 2°53.23 18.553 4.520676 33.819576 0.567127
2006-08-23 07:31:20 51°17.376 2°53.208 18.5509 4.520465 33.817809 0.567127
2006-08-23 07:31:24 51°17.365 2°53.195 18.5521 4.520043 33.814866 0.600836
2006-08-23 07:31:30 51°17.347 2°53.175 18.5517 4.520043 33.814866 0.600836
2006-08-23 07:31:34 51°17.335 2°53.162 18.554 4.519727 33.812805 0.567127
2006-08-23 07:31:39 51°17.321 2°53.145 18.552 4.519516 33.812216 0.567127
2006-08-23 07:31:44 51°17.306 2°53.129 18.553 4.519305 33.809861 0.600836
2006-08-23 07:31:49 51°17.292 2°53.111 18.5538 4.518883 33.807506 0.567127
2006-08-23 07:31:54 51°17.278 2°53.094 18.5535 4.518989 33.808389 0.600836
2006-08-23 07:32:00 51°17.261 2°53.072 18.5538 4.518989 33.808389 0.600836
2006-08-23 07:32:05 51°17.247 2°53.055 18.5536 4.519094 33.809272 0.600836
2006-08-23 07:32:09 51°17.236 2°53.041 18.5521 4.519094 33.808683 0.567127
2006-08-23 07:32:14 51°17.221 2°53.024 18.5538 4.518778 33.806623 0.533418
2006-08-23 07:32:20 51°17.204 2°53.004 18.5533 4.519305 33.81045 0.533418
2006-08-23 07:32:24 51°17.192 2°52.991 18.5538 4.5192 33.808389 0.533418
2006-08-23 07:32:30 51°17.174 2°52.972 18.5539 4.5192 33.808389 0.533418
2006-08-23 07:32:33 51°17.166 2°52.962 18.5526 4.518883 33.805151 0.533418
2006-08-23 07:32:40 51°17.145 2°52.939 18.5543 4.518989 33.807212 0.533418
2006-08-23 07:32:44 51°17.133 2°52.927 18.5531 4.518989 33.807212 0.533418
2006-08-23 07:32:50 51°17.115 2°52.906 18.553 4.5192 33.809567 0.533418
2006-08-23 07:32:54 51°17.104 2°52.893 18.5534 4.51941 33.810744 0.499708
2006-08-23 07:33:00 51°17.087 2°52.873 18.5554 4.51941 33.810744 0.499708
2006-08-23 07:33:04 51°17.076 2°52.858 18.5547 4.519305 33.809272 0.567127
2006-08-23 07:33:10 51°17.059 2°52.837 18.5538 4.519305 33.809272 0.533418
2006-08-23 07:33:14 51°17.048 2°52.823 18.5549 4.519094 33.808095 0.567127
2006-08-23 07:33:20 51°17.031 2°52.801 18.5543 4.51941 33.810155 0.499708
2006-08-23 07:33:24 51°17.019 2°52.788 18.5546 4.519305 33.809861 0.533418
2006-08-23 07:33:30 51°17.002 2°52.767 18.5552 4.519305 33.809861 0.533418
2006-08-23 07:33:34 51°16.991 2°52.752 18.556 4.519516 33.809861 0.533418
2006-08-23 07:33:39 51°16.977 2°52.734 18.5565 4.519621 33.811333 0.499708
2006-08-23 07:33:45 51°16.96 2°52.714 18.5579 4.519832 33.813688 0.533418
2006-08-23 07:33:50 51°16.947 2°52.695 18.559 4.519727 33.812216 0.533418
2006-08-23 07:33:54 51°16.936 2°52.681 18.5598 4.519516 33.809861 0.499708
2006-08-23 07:33:59 51°16.922 2°52.664 18.5625 4.519516 33.809861 0.499708
2006-08-23 07:34:04 51°16.907 2°52.647 18.5615 4.519832 33.813099 0.499708
2006-08-23 07:34:10 51°16.89 2°52.626 18.562 4.519727 33.811039 0.533418
2006-08-23 07:34:14 51°16.879 2°52.612 18.5627 4.519727 33.811039 0.499708
2006-08-23 07:34:20 51°16.862 2°52.591 18.5638 4.520149 33.813394 0.533418
2006-08-23 07:34:24 51°16.85 2°52.577 18.5668 4.519832 33.810745 0.465999
2006-08-23 07:34:30 51°16.834 2°52.556 18.5661 4.519832 33.810745 0.465999
2006-08-23 07:34:33 51°16.825 2°52.546 18.5674 4.520149 33.812805 0.533418
2006-08-23 07:34:40 51°16.806 2°52.52 18.569 4.520465 33.813688 0.533418
2006-08-23 07:34:44 51°16.795 2°52.506 18.5704 4.521097 33.818987 0.499708
2006-08-23 07:34:49 51°16.781 2°52.488 18.5705 4.521097 33.817809 0.465999
2006-08-23 07:34:55 51°16.764 2°52.467 18.5731 4.521308 33.818398 0.499708
2006-08-23 07:35:00 51°16.75 2°52.449 18.5724 4.521308 33.818398 0.499708
2006-08-23 07:35:04 51°16.739 2°52.436 18.5729 4.521625 33.819869 0.533418
2006-08-23 07:35:10 51°16.722 2°52.415 18.5742 4.52173 33.820752 0.499708
2006-08-23 07:35:14 51°16.711 2°52.401 18.5763 4.522152 33.822518 0.499708
2006-08-23 07:35:20 51°16.694 2°52.38 18.5757 4.522152 33.821929 0.499708
2006-08-23 07:35:24 51°16.683 2°52.366 18.5769 4.522046 33.81928 0.499708
2006-08-23 07:35:30 51°16.665 2°52.346 18.5782 4.522046 33.81928 0.499708
2006-08-23 07:35:33 51°16.657 2°52.334 18.5795 4.522995 33.827227 0.499708
2006-08-23 07:35:40 51°16.637 2°52.311 18.581 4.523312 33.828698 0.499708
2006-08-23 07:35:44 51°16.626 2°52.296 18.5811 4.523628 33.830169 0.533418
2006-08-23 07:35:50 51°16.609 2°52.276 18.5828 4.523522 33.829286 0.499708
2006-08-23 07:35:54 51°16.598 2°52.262 18.5838 4.523628 33.828991 0.499708
2006-08-23 07:35:59 51°16.584 2°52.245 18.584 4.523628 33.828991 0.499708
2006-08-23 07:36:04 51°16.57 2°52.227 18.5856 4.524366 33.834583 0.465999
2006-08-23 07:36:10 51°16.553 2°52.206 18.5851 4.524366 33.833405 0.499708
2006-08-23 07:36:14 51°16.542 2°52.192 18.5854 4.524682 33.835465 0.465999
2006-08-23 07:36:19 51°16.528 2°52.174 18.5843 4.524998 33.836936 0.465999
2006-08-23 07:36:24 51°16.514 2°52.157 18.5869 4.525209 33.838113 0.499708
2006-08-23 07:36:30 51°16.497 2°52.135 18.5846 4.525209 33.838113 0.499708
2006-08-23 07:36:34 51°16.486 2°52.122 18.5839 4.525947 33.842526 0.499708
2006-08-23 07:36:40 51°16.469 2°52.101 18.585 4.526369 33.846057 0.499708
2006-08-23 07:36:43 51°16.46 2°52.091 18.5851 4.526475 33.845173 0.499708
2006-08-23 07:36:49 51°16.443 2°52.07 18.585 4.526896 33.848704 0.499708
2006-08-23 07:36:54 51°16.429 2°52.053 18.5856 4.527318 33.851646 0.499708
2006-08-23 07:37:00 51°16.412 2°52.031 18.5848 4.527318 33.851646 0.499708
2006-08-23 07:37:04 51°16.402 2°52.017 18.5866 4.527424 33.852529 0.465999
2006-08-23 07:37:09 51°16.388 2°51.999 18.5878 4.527529 33.853412 0.465999
2006-08-23 07:37:14 51°16.375 2°51.98 18.587 4.528162 33.858119 0.499708
2006-08-23 07:37:20 51°16.358 2°51.959 18.5876 4.528478 33.861357 0.465999
2006-08-23 07:37:24 51°16.347 2°51.943 18.5882 4.528372 33.861063 0.465999
2006-08-23 07:37:30 51°16.331 2°51.922 18.5889 4.528372 33.861063 0.465999
2006-08-23 07:37:34 51°16.32 2°51.907 18.5898 4.529111 33.866064 0.465999
2006-08-23 07:37:40 51°16.304 2°51.885 18.5905 4.526369 33.842524 0.465999
2006-08-23 07:37:44 51°16.293 2°51.871 18.5912 4.529321 33.866651 0.465999
2006-08-23 07:37:50 51°16.276 2°51.85 18.5917 4.529954 33.872537 0.499708
2006-08-23 07:37:54 51°16.265 2°51.836 18.5909 4.527634 33.851939 0.432289
2006-08-23 07:38:00 51°16.248 2°51.816 18.5911 4.527634 33.851939 0.432289
2006-08-23 07:38:04 51°16.237 2°51.802 18.592 4.529743 33.869004 0.465999
2006-08-23 07:38:10 51°16.22 2°51.781 18.5911 4.526896 33.845171 0.465999
2006-08-23 07:38:14 51°16.209 2°51.767 18.5902 4.527423 33.848407 0.39858
2006-08-23 07:38:20 51°16.192 2°51.747 18.5899 4.528372 33.856351 0.465999
2006-08-23 07:38:24 51°16.181 2°51.732 18.5902 4.530059 33.869885 0.465999
2006-08-23 07:38:30 51°16.164 2°51.711 18.5875 4.530059 33.869885 0.465999
2006-08-23 07:38:34 51°16.153 2°51.696 18.588 4.531747 33.884009 0.465999
2006-08-23 07:38:40 51°16.137 2°51.674 18.5872 4.532168 33.886951 0.432289
2006-08-23 07:38:44 51°16.126 2°51.66 18.5873 4.532379 33.889306 0.465999
2006-08-23 07:38:50 51°16.111 2°51.636 18.587 4.532063 33.886068 0.465999
2006-08-23 07:38:54 51°16.1 2°51.622 18.5876 4.532485 33.890188 0.432289
2006-08-23 07:39:00 51°16.084 2°51.599 18.5869 4.532485 33.890188 0.432289
2006-08-23 07:39:03 51°16.076 2°51.588 18.5865 4.532695 33.891365 0.432289
2006-08-23 07:39:10 51°16.058 2°51.561 18.5865 4.532485 33.890188 0.465999
2006-08-23 07:39:14 51°16.047 2°51.545 18.5871 4.532274 33.890191 0.432289
2006-08-23 07:39:20 51°16.032 2°51.522 18.5867 4.532168 33.88813 0.432289
2006-08-23 07:39:25 51°16.018 2°51.503 18.5876 4.53259 33.89225 0.432289
2006-08-23 07:39:29 51°16.008 2°51.488 18.5891 4.53259 33.89225 0.432289
2006-08-23 07:39:34 51°15.995 2°51.468 18.5892 4.532063 33.888426 0.465999
2006-08-23 07:39:40 51°15.978 2°51.447 18.591 4.532274 33.890781 0.465999
2006-08-23 07:39:44 51°15.968 2°51.432 18.5894 4.532168 33.889898 0.432289
2006-08-23 07:39:50 51°15.95 2°51.411 18.5919 4.532696 33.893723 0.432289
2006-08-23 07:39:54 51°15.939 2°51.396 18.5919 4.532274 33.890191 0.432289
2006-08-23 07:40:00 51°15.923 2°51.376 18.5923 4.532274 33.890191 0.432289
2006-08-23 07:40:04 51°15.911 2°51.362 18.5914 4.532485 33.891957 0.465999
2006-08-23 07:40:10 51°15.894 2°51.341 18.593 4.53259 33.89284 0.432289
2006-08-23 07:40:14 51°15.883 2°51.326 18.592 4.532695 33.893133 0.465999
2006-08-23 07:40:20 51°15.867 2°51.305 18.5923 4.532695 33.892544 0.432289
2006-08-23 07:40:24 51°15.856 2°51.29 18.5905 4.533012 33.894013 0.465999
2006-08-23 07:40:30 51°15.841 2°51.269 18.589 4.533012 33.894013 0.465999
2006-08-23 07:40:34 51°15.831 2°51.256 18.5857 4.532906 33.892541 0.432289
2006-08-23 07:40:40 51°15.817 2°51.237 18.5834 4.532906 33.892541 0.465999
2006-08-23 07:40:44 51°15.809 2°51.225 18.5809 4.533012 33.894013 0.432289
2006-08-23 07:40:50 51°15.795 2°51.208 18.578 4.533328 33.894303 0.432289
2006-08-23 07:40:54 51°15.787 2°51.197 18.5783 4.533117 33.892538 0.432289
2006-08-23 07:41:00 51°15.775 2°51.18 18.5744 4.533117 33.892538 0.432289
2006-08-23 07:41:04 51°15.767 2°51.171 18.5737 4.533117 33.893717 0.465999
2006-08-23 07:41:10 51°15.756 2°51.156 18.5733 4.531957 33.885185 0.432289
2006-08-23 07:41:15 51°15.747 2°51.145 18.5718 4.530481 33.874594 0.432289
2006-08-23 07:41:20 51°15.738 2°51.134 18.5706 4.529005 33.864592 0.465999
2006-08-23 07:41:24 51°15.732 2°51.125 18.57 4.527318 33.852824 0.432289
2006-08-23 07:41:30 51°15.722 2°51.113 18.5692 4.527318 33.852824 0.432289
2006-08-23 07:41:34 51°15.716 2°51.105 18.5687 4.525947 33.842526 0.432289
2006-08-23 07:41:40 51°15.707 2°51.093 18.5688 4.52426 33.829579 0.432289
2006-08-23 07:41:44 51°15.702 2°51.085 18.5672 4.522995 33.82134 0.465999
2006-08-23 07:41:49 51°15.695 2°51.076 18.5666 4.521835 33.812807 0.465999
2006-08-23 07:41:54 51°15.687 2°51.067 18.5669 4.520992 33.806921 0.465999
2006-08-23 07:41:59 51°15.681 2°51.057 18.5672 4.520992 33.806921 0.465999
2006-08-23 07:42:04 51°15.675 2°51.048 18.5667 4.520254 33.801919 0.432289
2006-08-23 07:42:10 51°15.667 2°51.037 18.5679 4.519516 33.796327 0.432289
2006-08-23 07:42:14 51°15.663 2°51.03 18.5677 4.518672 33.79103 0.432289
2006-08-23 07:42:20 51°15.657 2°51.019 18.567 4.518356 33.787793 0.432289
2006-08-23 07:42:25 51°15.652 2°51.011 18.5661 4.517512 33.781907 0.465999
2006-08-23 07:42:30 51°15.648 2°51.002 18.5665 4.517512 33.781907 0.465999
2006-08-23 07:42:34 51°15.645 2°50.996 18.5639 4.517091 33.779552 0.432289
2006-08-23 07:42:40 51°15.64 2°50.986 18.5641 4.517196 33.779259 0.465999
2006-08-23 07:42:44 51°15.638 2°50.98 18.5643 4.516669 33.774845 0.465999
2006-08-23 07:42:50 51°15.633 2°50.971 18.5644 4.516247 33.771902 0.465999
2006-08-23 07:42:54 51°15.631 2°50.965 18.5635 4.516774 33.776316 0.465999
2006-08-23 07:43:00 51°15.628 2°50.956 18.5634 4.516774 33.776316 0.465999
2006-08-23 07:43:04 51°15.625 2°50.95 18.5634 4.515825 33.769547 0.432289
2006-08-23 07:43:10 51°15.623 2°50.942 18.563 4.515614 33.767194 0.432289
2006-08-23 07:43:13 51°15.621 2°50.938 18.5628 4.514771 33.761307 0.465999
2006-08-23 07:43:20 51°15.619 2°50.93 18.5636 4.514138 33.756599 0.432289
2006-08-23 07:43:24 51°15.618 2°50.925 18.5634 4.514138 33.756599 0.432289
2006-08-23 07:43:30 51°15.616 2°50.919 18.5629 4.514138 33.756599 0.432289
2006-08-23 07:43:33 51°15.615 2°50.916 18.5633 4.513927 33.755421 0.465999
2006-08-23 07:43:40 51°15.614 2°50.91 18.5625 4.513927 33.756008 0.432289
2006-08-23 07:43:43 51°15.613 2°50.907 18.5627 4.513927 33.756596 0.465999
2006-08-23 07:43:50 51°15.612 2°50.903 18.5628 4.513927 33.756008 0.465999
2006-08-23 07:43:54 51°15.612 2°50.9 18.563 4.513822 33.755126 0.432289
2006-08-23 07:44:00 51°15.61 2°50.899 18.5655 4.513822 33.755126 0.432289
2006-08-23 07:44:04 51°15.609 2°50.898 18.5655 4.513822 33.756301 0.432289
2006-08-23 07:44:10 51°15.609 2°50.897 18.5681 4.512979 33.749239 0.465999
2006-08-23 07:44:13 51°15.608 2°50.897 18.5681 4.513084 33.748947 0.432289
2006-08-23 07:44:20 51°15.607 2°50.896 18.5679 4.512979 33.748651 0.432289
2006-08-23 07:44:25 51°15.606 2°50.895 18.5693 4.5134 33.752182 0.465999
2006-08-23 07:44:30 51°15.605 2°50.895 18.5704 4.5134 33.752182 0.465999
2006-08-23 07:44:35 51°15.604 2°50.894 18.5707 4.513295 33.751299 0.465999
2006-08-23 07:44:40 51°15.603 2°50.893 18.5698 4.513506 33.753065 0.432289
2006-08-23 07:44:45 51°15.602 2°50.892 18.5679 4.514033 33.756891 0.499708
2006-08-23 07:44:50 51°15.601 2°50.891 18.5668 4.514666 33.761012 0.465999
2006-08-23 07:44:55 51°15.6 2°50.89 18.5674 4.514876 33.761602 0.465999
2006-08-23 07:45:00 51°15.599 2°50.889 18.5692 4.514876 33.761602 0.465999
2006-08-23 07:45:05 51°15.598 2°50.888 18.5696 4.51572 33.768664 0.432289
2006-08-23 07:45:10 51°15.597 2°50.887 18.571 4.516353 33.772785 0.465999
2006-08-23 07:45:15 51°15.596 2°50.886 18.571 4.517091 33.778376 0.432289
2006-08-23 07:45:20 51°15.595 2°50.885 18.5707 4.516774 33.775728 0.465999
2006-08-23 07:45:24 51°15.595 2°50.884 18.5706 4.516563 33.775138 0.432289
2006-08-23 07:45:30 51°15.594 2°50.881 18.569 4.516563 33.775138 0.432289
2006-08-23 07:45:34 51°15.594 2°50.879 18.5675 4.516353 33.773961 0.432289
2006-08-23 07:45:40 51°15.595 2°50.875 18.566 4.516669 33.776609 0.432289
2006-08-23 07:45:43 51°15.595 2°50.873 18.5661 4.517301 33.78073 0.432289
2006-08-23 07:45:49 51°15.597 2°50.867 18.5666 4.518356 33.789558 0.432289
2006-08-23 07:45:54 51°15.599 2°50.862 18.5663 4.518567 33.790147 0.465999
2006-08-23 07:46:00 51°15.603 2°50.856 18.567 4.518567 33.790147 0.465999
2006-08-23 07:46:05 51°15.606 2°50.85 18.5689 4.518567 33.790147 0.432289
2006-08-23 07:46:09 51°15.61 2°50.846 18.5694 4.517618 33.783378 0.432289
2006-08-23 07:46:14 51°15.616 2°50.841 18.5698 4.516774 33.776316 0.39858
2006-08-23 07:46:19 51°15.622 2°50.838 18.5698 4.51572 33.768664 0.432289
2006-08-23 07:46:24 51°15.628 2°50.835 18.5696 4.515509 33.767487 0.432289
2006-08-23 07:46:30 51°15.637 2°50.833 18.569 4.515509 33.767487 0.432289
2006-08-23 07:46:34 51°15.642 2°50.833 18.5692 4.515298 33.765721 0.465999
2006-08-23 07:46:40 51°15.652 2°50.835 18.57 4.515509 33.766899 0.432289
2006-08-23 07:46:45 51°15.659 2°50.839 18.5706 4.516247 33.771902 0.465999
2006-08-23 07:46:50 51°15.667 2°50.844 18.5708 4.516774 33.775728 0.465999
2006-08-23 07:46:54 51°15.673 2°50.85 18.5723 4.51688 33.776023 0.432289
2006-08-23 07:47:00 51°15.681 2°50.861 18.5713 4.51688 33.776023 0.432289
2006-08-23 07:47:04 51°15.686 2°50.869 18.5718 4.517196 33.778671 0.432289
2006-08-23 07:47:09 51°15.692 2°50.88 18.5733 4.516669 33.773082 0.432289
2006-08-23 07:47:14 51°15.697 2°50.892 18.5737 4.516563 33.771612 0.432289
2006-08-23 07:47:20 51°15.703 2°50.909 18.5736 4.516563 33.772199 0.465999
2006-08-23 07:47:25 51°15.708 2°50.923 18.5743 4.51688 33.77426 0.465999
2006-08-23 07:47:29 51°15.711 2°50.934 18.5744 4.51688 33.77426 0.465999
2006-08-23 07:47:34 51°15.716 2°50.949 18.5756 4.517301 33.777202 0.432289
2006-08-23 07:47:40 51°15.722 2°50.967 18.5754 4.517723 33.779557 0.465999
2006-08-23 07:47:44 51°15.726 2°50.979 18.5765 4.518145 33.7825 0.465999
2006-08-23 07:47:50 51°15.732 2°50.998 18.5764 4.518672 33.787501 0.465999
2006-08-23 07:47:54 51°15.736 2°51.01 18.5757 4.519516 33.794563 0.499708
2006-08-23 07:48:00 51°15.741 2°51.029 18.5764 4.519516 33.794563 0.499708
2006-08-23 07:48:04 51°15.746 2°51.042 18.5757 4.519832 33.796623 0.432289
2006-08-23 07:48:10 51°15.751 2°51.062 18.5757 4.520043 33.798977 0.432289
2006-08-23 07:48:14 51°15.754 2°51.075 18.576 4.52057 33.802214 0.432289
2006-08-23 07:48:20 51°15.759 2°51.095 18.5765 4.521097 33.806627 0.432289
2006-08-23 07:48:24 51°15.763 2°51.108 18.5764 4.521414 33.808099 0.39858
2006-08-23 07:48:29 51°15.767 2°51.125 18.5785 4.521414 33.808099 0.39858
2006-08-23 07:48:34 51°15.772 2°51.14 18.5788 4.521414 33.808687 0.465999
2006-08-23 07:48:40 51°15.777 2°51.158 18.5778 4.521835 33.811042 0.465999
2006-08-23 07:48:45 51°15.781 2°51.172 18.5791 4.52173 33.810747 0.465999
2006-08-23 07:48:49 51°15.784 2°51.182 18.5775 4.522468 33.816926 0.432289
2006-08-23 07:48:54 51°15.789 2°51.195 18.576 4.52173 33.810747 0.432289
2006-08-23 07:49:00 51°15.794 2°51.21 18.574 4.52173 33.810747 0.432289
2006-08-23 07:49:04 51°15.797 2°51.22 18.5747 4.522573 33.816632 0.432289
2006-08-23 07:49:10 51°15.8 2°51.234 18.5728 4.52426 33.830168 0.465999
2006-08-23 07:49:14 51°15.802 2°51.243 18.5712 4.524788 33.834581 0.465999
2006-08-23 07:49:20 51°15.805 2°51.255 18.572 4.525104 33.837819 0.432289
2006-08-23 07:49:24 51°15.806 2°51.263 18.5698 4.524471 33.831344 0.432289
2006-08-23 07:49:30 51°15.807 2°51.274 18.5695 4.524471 33.831344 0.432289
2006-08-23 07:49:34 51°15.807 2°51.281 18.5676 4.523944 33.828108 0.465999
2006-08-23 07:49:40 51°15.808 2°51.29 18.5653 4.522995 33.82134 0.465999
2006-08-23 07:49:44 51°15.808 2°51.296 18.5654 4.522679 33.818692 0.465999
2006-08-23 07:49:50 51°15.807 2°51.302 18.5646 4.522784 33.819575 0.432289
2006-08-23 07:49:54 51°15.807 2°51.306 18.5632 4.521835 33.812807 0.465999
2006-08-23 07:50:00 51°15.806 2°51.309 18.5625 4.521835 33.812807 0.465999
2006-08-23 07:50:04 51°15.806 2°51.311 18.5618 4.52173 33.813101 0.465999
2006-08-23 07:50:10 51°15.805 2°51.312 18.5601 4.521203 33.809275 0.432289
2006-08-23 07:50:15 51°15.805 2°51.312 18.5597 4.520676 33.806038 0.432289
2006-08-23 07:50:20 51°15.804 2°51.313 18.5579 4.519832 33.80074 0.465999
2006-08-23 07:50:24 51°15.804 2°51.313 18.559 4.519516 33.79868 0.432289
2006-08-23 07:50:30 51°15.803 2°51.314 18.5589 4.519516 33.79868 0.432289
2006-08-23 07:50:35 51°15.803 2°51.314 18.5589 4.518883 33.795148 0.465999
2006-08-23 07:50:40 51°15.802 2°51.315 18.5588 4.518145 33.790733 0.432289
2006-08-23 07:50:43 51°15.801 2°51.315 18.5578 4.517829 33.788084 0.465999
2006-08-23 07:50:49 51°15.801 2°51.316 18.5579 4.517091 33.78308 0.432289
2006-08-23 07:50:54 51°15.8 2°51.317 18.558 4.516563 33.779842 0.432289
2006-08-23 07:51:00 51°15.8 2°51.317 18.5567 4.516563 33.779842 0.432289
2006-08-23 07:51:04 51°15.799 2°51.318 18.5586 4.516247 33.777781 0.465999
2006-08-23 07:51:10 51°15.799 2°51.319 18.5578 4.516142 33.776311 0.432289
2006-08-23 07:51:14 51°15.798 2°51.319 18.5572 4.515931 33.775721 0.432289
2006-08-23 07:51:20 51°15.797 2°51.321 18.5582 4.515931 33.775721 0.432289
2006-08-23 07:51:25 51°15.797 2°51.323 18.5577 4.515509 33.772777 0.465999
2006-08-23 07:51:29 51°15.796 2°51.326 18.5576 4.515509 33.772777 0.465999
2006-08-23 07:51:34 51°15.796 2°51.329 18.5583 4.515087 33.769834 0.432289
2006-08-23 07:51:40 51°15.795 2°51.335 18.5582 4.514982 33.768951 0.432289
2006-08-23 07:51:44 51°15.795 2°51.339 18.5581 4.514982 33.768951 0.432289
2006-08-23 07:51:50 51°15.795 2°51.347 18.5584 4.514876 33.76748 0.39858
2006-08-23 07:51:54 51°15.795 2°51.353 18.559 4.515298 33.771599 0.465999
2006-08-23 07:52:00 51°15.797 2°51.364 18.5591 4.515298 33.771599 0.465999
2006-08-23 07:52:04 51°15.798 2°51.372 18.5593 4.514982 33.768363 0.39858
2006-08-23 07:52:10 51°15.801 2°51.385 18.559 4.514771 33.767185 0.432289
2006-08-23 07:52:14 51°15.804 2°51.394 18.5572 4.514138 33.761888 0.432289
2006-08-23 07:52:20 51°15.81 2°51.408 18.558 4.514666 33.766302 0.432289
2006-08-23 07:52:24 51°15.814 2°51.417 18.5574 4.514666 33.76689 0.39858
2006-08-23 07:52:30 51°15.822 2°51.431 18.5587 4.514666 33.76689 0.39858
2006-08-23 07:52:33 51°15.825 2°51.438 18.5587 4.514771 33.766597 0.465999
2006-08-23 07:52:40 51°15.835 2°51.456 18.5583 4.515193 33.770716 0.465999
2006-08-23 07:52:44 51°15.841 2°51.467 18.5598 4.514666 33.767478 0.432289
2006-08-23 07:52:50 51°15.85 2°51.484 18.5601 4.514455 33.765712 0.432289
2006-08-23 07:52:54 51°15.856 2°51.496 18.5602 4.514244 33.763358 0.465999
2006-08-23 07:53:00 51°15.865 2°51.514 18.5614 4.514244 33.763358 0.465999
2006-08-23 07:53:04 51°15.872 2°51.526 18.5629 4.513928 33.761298 0.499708
2006-08-23 07:53:10 51°15.882 2°51.545 18.5655 4.5134 33.756295 0.465999
2006-08-23 07:53:14 51°15.888 2°51.557 18.5669 4.513822 33.759827 0.432289
2006-08-23 07:53:20 51°15.898 2°51.577 18.5686 4.513717 33.758356 0.465999
2006-08-23 07:53:24 51°15.905 2°51.59 18.5706 4.514138 33.760712 0.499708
2006-08-23 07:53:29 51°15.913 2°51.606 18.5745 4.514138 33.760712 0.499708
2006-08-23 07:53:34 51°15.921 2°51.623 18.5752 4.514666 33.764539 0.499708
2006-08-23 07:53:40 51°15.931 2°51.643 18.5769 4.515193 33.767777 0.499708
2006-08-23 07:53:44 51°15.938 2°51.656 18.5774 4.515509 33.769838 0.465999
2006-08-23 07:53:50 51°15.948 2°51.676 18.5774 4.516458 33.775431 0.465999
2006-08-23 07:53:54 51°15.955 2°51.69 18.5774 4.517512 33.783083 0.465999
2006-08-23 07:53:59 51°15.963 2°51.706 18.5782 4.517512 33.783083 0.465999
2006-08-23 07:54:05 51°15.973 2°51.725 18.5781 4.51804 33.786321 0.465999
2006-08-23 07:54:10 51°15.982 2°51.74 18.5779 4.519094 33.792208 0.465999
2006-08-23 07:54:14 51°15.988 2°51.752 18.5776 4.520465 33.802508 0.465999
2006-08-23 07:54:20 51°15.997 2°51.768 18.5769 4.521624 33.81163 0.499708
2006-08-23 07:54:24 51°16.004 2°51.777 18.5769 4.521835 33.812218 0.432289
2006-08-23 07:54:30 51°16.013 2°51.792 18.5762 4.521835 33.812218 0.432289
2006-08-23 07:54:34 51°16.019 2°51.8 18.5762 4.522784 33.818986 0.465999